Flight Track Log - Related Links

Times and Time Zones

All times are in EDT time to prevent confusion due to time zone crossing. See the AFL150 flight status page for this flight to view local times or setup timezone preferences in your user account.

Time Position Orientation Groundspeed Altitude Reporting Facility
EDT Latitude Longitude Course Direction KTS MPH feet Rate Location/Type
Sat 06:26:08 AM 55.9640 37.3660 254° West 178 205 1,900  Level FlightAware ADS-B
Sat 06:26:25 AM 55.9600 37.3380 256° West 175 201 2,700 1,756 Climbing FlightAware ADS-B
Sat 06:26:49 AM 55.9550 37.3010 256° West 196 226 3,100 1,176 Climbing FlightAware ADS-B
Sat 06:27:16 AM 55.9460 37.2410 255° West 232 267 3,700 1,612 Climbing FlightAware ADS-B
Sat 06:27:56 AM 55.9480 37.1600 273° West 260 299 4,900 2,123 Climbing FlightAware ADS-B
Sat 06:28:21 AM 55.9570 37.1080 287° West 263 303 6,000 2,550 Climbing FlightAware ADS-B
Sat 06:28:36 AM 55.9650 37.0790 296° West 269 310 6,600 1,950 Climbing FlightAware ADS-B
Sat 06:29:01 AM 55.9800 37.0270 297° West 286 329 7,300 2,040 Climbing FlightAware ADS-B
Sat 06:29:26 AM 55.9940 36.9740 295° West 290 334 8,300 2,400 Climbing FlightAware ADS-B
Sat 06:29:56 AM 56.0110 36.9090 295° West 298 343 9,500 1,920 Climbing FlightAware ADS-B
Sat 06:30:41 AM 56.0390 36.8050 296° West 324 373 10,700 1,275 Climbing FlightAware ADS-B
Sat 06:31:16 AM 56.0630 36.7150 296° West 357 411 11,200 1,425 Climbing FlightAware ADS-B
Sat 06:32:01 AM 56.0960 36.5910 296° West 375 432 12,600 2,000 Climbing FlightAware ADS-B
Sat 06:32:37 AM 56.1220 36.4920 295° West 382 440 13,900 1,952 Climbing FlightAware ADS-B
Sat 06:33:24 AM 56.1530 36.3760 296° West 391 450 15,300 1,884 Climbing FlightAware ADS-B
Sat 06:34:03 AM 56.1880 36.2410 295° West 402 463 16,600 2,029 Climbing FlightAware ADS-B
Sat 06:34:32 AM 56.2170 36.1540 301° West 417 480 17,600 1,629 Climbing FlightAware ADS-B
Sat 06:35:13 AM 56.2760 36.0920 330° Northwest 435 501 18,500 1,500 Climbing FlightAware ADS-B
Sat 06:35:56 AM 56.3690 36.0160 336° Northwest 451 519 19,700 1,663 Climbing FlightAware ADS-B
Sat 06:36:36 AM 56.4450 35.9490 334° Northwest 457 526 20,800 1,605 Climbing FlightAware ADS-B
Sat 06:37:22 AM 56.5310 35.8730 334° Northwest 467 537 22,000 1,553 Climbing FlightAware ADS-B
Sat 06:38:01 AM 56.6080 35.8040 334° Northwest 472 543 23,000 1,333 Climbing FlightAware ADS-B
Sat 06:38:43 AM 56.6870 35.7330 334° Northwest 480 552 23,800 1,171 Climbing FlightAware ADS-B
Sat 06:39:23 AM 56.7580 35.6700 334° Northwest 486 559 24,600 1,081 Climbing FlightAware ADS-B
Sat 06:40:34 AM 56.8900 35.5510 334° Northwest 497 572 25,800 1,043 Climbing FlightAware ADS-B
Sat 06:41:18 AM 57.0050 35.4460 334° Northwest 510 587 26,600 1,024 Climbing FlightAware ADS-B
Sat 06:41:56 AM 57.0900 35.3690 334° Northwest 519 597 27,200 1,231 Climbing FlightAware ADS-B
Sat 06:42:36 AM 57.1750 35.2900 333° Northwest 515 593 28,200 1,275 Climbing FlightAware ADS-B
Sat 06:43:16 AM 57.2610 35.2110 334° Northwest 519 597 28,900 1,050 Climbing FlightAware ADS-B
Sat 06:43:56 AM 57.3460 35.1320 333° Northwest 520 598 29,600 990 Climbing FlightAware ADS-B
Sat 06:44:53 AM 57.4540 35.0320 334° Northwest 523 602 30,500 1,059 Climbing FlightAware ADS-B
Sat 06:45:38 AM 57.5400 34.9510 333° Northwest 516 594 31,400 1,000 Climbing FlightAware ADS-B
Sat 06:46:23 AM 57.6350 34.8610 333° Northwest 517 595 32,000 409 Climbing FlightAware ADS-B
Sat 06:47:06 AM 57.7510 34.7510 333° Northwest 515 593 32,000  Level FlightAware ADS-B
Sat 06:47:41 AM 57.8250 34.6800 333° Northwest 514 592 32,000  Level FlightAware ADS-B
Sat 06:48:21 AM 57.9080 34.5990 333° Northwest 514 592 32,000  Level FlightAware ADS-B
Sat 06:49:06 AM 58.0040 34.5080 333° Northwest 512 589 32,000 75 Level FlightAware ADS-B
Sat 06:49:41 AM 58.0780 34.4350 332° Northwest 509 586 32,100 571 Climbing FlightAware ADS-B
Sat 06:50:30 AM 58.1670 34.3290 328° Northwest 502 578 32,800 607 Climbing FlightAware ADS-B
Sat 06:51:10 AM 58.2300 34.2330 321° Northwest 509 586 33,000 741 Climbing FlightAware ADS-B
Sat 06:51:51 AM 58.3230 34.0990 323° Northwest 504 580 33,800 789 Climbing FlightAware ADS-B
Sat 06:52:26 AM 58.3870 34.0020 322° Northwest 506 582 34,000 164 Climbing FlightAware ADS-B
Sat 06:53:04 AM 58.4460 33.9110 321° Northwest 506 582 34,000  Level FlightAware ADS-B
Sat 06:54:06 AM 58.5340 33.7770 322° Northwest 505 581 34,000  Level FlightAware ADS-B
Sat 06:54:48 AM 58.5950 33.6820 321° Northwest 505 581 34,000  Level FlightAware ADS-B
Sat 06:55:28 AM 58.6530 33.5880 320° Northwest 504 580 34,000  Level FlightAware ADS-B
Sat 06:56:08 AM 58.7240 33.4780 321° Northwest 504 580 34,000  Level FlightAware ADS-B
Sat 06:57:09 AM 58.8160 33.3280 320° Northwest 504 580 34,000  Level FlightAware ADS-B
Sat 06:58:33 AM 58.9690 33.0090 313° West 499 574 34,000  Level FlightAware ADS-B
Sat 06:59:14 AM 59.0810 32.7880 315° West 497 572 34,000  Level FlightAware ADS-B
Sat 06:59:54 AM 59.1480 32.6550 315° West 497 572 34,000  Level FlightAware ADS-B
Sat 07:00:38 AM 59.2140 32.5260 315° West 496 571 34,000  Level FlightAware ADS-B
Sat 07:01:56 AM 59.3240 32.3040 314° West 494 568 34,000  Level FlightAware ADS-B
Sat 07:03:06 AM 59.4270 32.0690 311° West 491 565 34,000  Level FlightAware ADS-B
Sat 07:03:49 AM 59.4890 31.8580 300° West 487 560 34,000  Level FlightAware ADS-B
Sat 07:04:24 AM 59.5210 31.7150 294° West 485 558 34,000  Level FlightAware ADS-B
Sat 07:05:09 AM 59.5620 31.5340 294° West 481 554 34,000  Level FlightAware ADS-B
Sat 07:05:49 AM 59.5970 31.3720 293° West 481 554 34,000  Level FlightAware ADS-B
Sat 07:06:24 AM 59.6270 31.2310 293° West 482 555 34,000  Level FlightAware ADS-B
Sat 07:07:10 AM 59.6460 31.0660 283° West 479 551 34,000  Level FlightAware ADS-B
Sat 07:07:49 AM 59.6450 30.9100 269° West 479 551 34,000  Level FlightAware ADS-B
Sat 07:08:32 AM 59.6440 30.7350 269° West 480 552 34,000  Level FlightAware ADS-B
Sat 07:09:16 AM 59.6410 30.4950 269° West 483 556 34,000  Level FlightAware ADS-B
Sat 07:09:59 AM 59.6390 30.2960 269° West 486 559 34,000  Level FlightAware ADS-B
Sat 07:10:39 AM 59.6380 30.1250 269° West 486 559 34,000  Level FlightAware ADS-B
Sat 07:11:19 AM 59.6350 29.9400 268° West 487 560 34,000  Level FlightAware ADS-B
Sat 07:12:04 AM 59.6320 29.7420 268° West 487 560 34,000  Level FlightAware ADS-B
Sat 07:12:45 AM 59.6290 29.5700 268° West 487 560 34,000  Level FlightAware ADS-B
Sat 07:13:29 AM 59.6250 29.3640 268° West 486 559 34,000  Level FlightAware ADS-B
Sat 07:14:09 AM 59.6230 29.1960 269° West 484 557 34,000  Level FlightAware ADS-B
Sat 07:14:54 AM 59.6360 29.0410 279° West 482 555 34,000  Level FlightAware ADS-B
Sat 07:15:32 AM 59.6560 28.8930 285° West 480 552 34,000  Level FlightAware ADS-B
Sat 07:16:09 AM 59.6780 28.7330 285° West 480 552 34,000  Level FlightAware ADS-B
Sat 07:16:55 AM 59.7020 28.5350 284° West 480 552 34,000  Level FlightAware ADS-B
Sat 07:17:43 AM 59.7340 28.2770 284° West 480 552 34,000  Level FlightAware ADS-B
Sat 07:18:19 AM 59.7520 28.1260 283° West 478 550 34,000  Level FlightAware ADS-B
Sat 07:18:55 AM 59.7700 27.9730 283° West 478 550 34,000  Level FlightAware ADS-B
Sat 07:19:39 AM 59.7890 27.8080 283° West 479 551 34,000  Level FlightAware ADS-B
Sat 07:20:15 AM 59.8040 27.6780 283° West 480 552 34,000  Level FlightAware ADS-B
Sat 07:20:56 AM 59.8250 27.5010 283° West 480 552 34,000  Level FlightAware ADS-B
Sat 07:21:41 AM 59.8460 27.3130 283° West 479 551 34,000  Level FlightAware ADS-B
Sat 07:22:36 AM 59.8780 27.0240 283° West 478 550 34,000  Level FlightAware ADS-B
Sat 07:23:16 AM 59.8970 26.8520 282° West 478 550 34,000  Level FlightAware ADS-B
Sat 07:24:00 AM 59.9180 26.6620 283° West 476 548 34,000  Level FlightAware ADS-B
Sat 07:24:40 AM 59.9360 26.4920 282° West 474 545 34,000  Level FlightAware ADS-B
Sat 07:25:22 AM 59.9640 26.3240 288° West 469 540 34,000  Level FlightAware ADS-B
Sat 07:26:06 AM 60.0070 26.1510 296° West 463 533 34,000  Level FlightAware ADS-B
Sat 07:26:46 AM 60.0520 26.0040 302° West 464 534 34,000  Level FlightAware ADS-B
Sat 07:27:30 AM 60.1010 25.8420 301° West 465 535 34,000  Level FlightAware ADS-B
Sat 07:28:06 AM 60.1410 25.7100 301° West 466 536 34,000  Level FlightAware ADS-B
Sat 07:28:46 AM 60.1840 25.5650 301° West 466 536 34,000  Level FlightAware ADS-B
Sat 07:29:26 AM 60.2290 25.4140 301° West 466 536 34,000  Level FlightAware ADS-B
Sat 07:30:10 AM 60.2770 25.2510 301° West 462 532 34,000  Level FlightAware ADS-B
Sat 07:30:52 AM 60.3120 25.1330 301° West 460 529 34,000  Level FlightAware ADS-B
Sat 07:31:31 AM 60.3500 25.0010 300° West 460 529 34,000  Level FlightAware ADS-B
Sat 07:32:14 AM 60.4000 24.8290 301° West 460 529 34,000  Level FlightAware ADS-B
Sat 07:32:56 AM 60.4420 24.6830 300° West 460 529 34,000  Level FlightAware ADS-B
Sat 07:33:40 AM 60.5010 24.4760 300° West 460 529 34,000  Level FlightAware ADS-B
Sat 07:34:20 AM 60.5440 24.3260 300° West 460 529 34,000  Level FlightAware ADS-B
Sat 07:34:56 AM 60.5820 24.1900 300° West 460 529 34,000  Level FlightAware ADS-B
Sat 07:35:37 AM 60.6240 24.0430 300° West 459 528 34,000  Level FlightAware ADS-B
Sat 07:36:18 AM 60.6610 23.9070 299° West 455 524 34,000  Level FlightAware ADS-B
Sat 07:37:00 AM 60.7020 23.7590 300° West 453 521 34,000  Level FlightAware ADS-B
Sat 07:37:41 AM 60.7450 23.6050 300° West 447 514 34,000  Level FlightAware ADS-B
Sat 07:38:26 AM 60.7980 23.4100 299° West 441 507 34,000  Level FlightAware ADS-B
Sat 07:39:10 AM 60.8400 23.2530 299° West 441 507 34,000  Level FlightAware ADS-B
Sat 07:39:42 AM 60.8700 23.1340 297° West 442 509 34,000  Level FlightAware ADS-B
Sat 07:40:26 AM 60.9090 22.9690 296° West 439 505 34,000  Level FlightAware ADS-B
Sat 07:41:06 AM 60.9450 22.8160 296° West 437 503 34,000  Level FlightAware ADS-B
Sat 07:41:44 AM 60.9770 22.6830 296° West 434 499 34,000  Level FlightAware ADS-B
Sat 07:42:23 AM 61.0110 22.5380 296° West 432 497 34,000  Level FlightAware ADS-B
Sat 07:43:17 AM 61.0530 22.3580 296° West 432 497 34,000  Level FlightAware ADS-B
Sat 07:43:59 AM 61.0860 22.2180 296° West 432 497 34,000  Level FlightAware ADS-B
Sat 07:44:44 AM 61.1230 22.0550 295° West 421 484 34,000  Level FlightAware ADS-B
Sat 07:45:24 AM 61.1540 21.9230 296° West 419 482 34,000  Level FlightAware ADS-B
Sat 07:45:58 AM 61.1940 21.7440 295° West 418 481 34,000  Level FlightAware ADS-B
Sat 07:46:38 AM 61.2260 21.6010 295° West 418 481 34,000  Level FlightAware ADS-B
Sat 07:47:14 AM 61.2560 21.4710 296° West 417 480 34,000  Level FlightAware ADS-B
Sat 07:47:58 AM 61.2900 21.3150 294° West 415 478 34,000  Level FlightAware ADS-B
Sat 07:48:40 AM 61.3200 21.1830 295° West 413 475 34,000  Level FlightAware ADS-B
Sat 07:49:21 AM 61.3460 21.0650 295° West 406 467 34,000  Level FlightAware ADS-B
Sat 07:50:04 AM 61.3800 20.9050 294° West 407 468 34,000  Level FlightAware ADS-B
Sat 07:50:44 AM 61.4080 20.7760 294° West 406 467 34,000  Level FlightAware ADS-B
Sat 07:51:12 AM 61.4430 20.6150 295° West 405 466 34,000  Level FlightAware ADS-B
Sat 07:51:54 AM 61.4750 20.4680 295° West 414 476 34,000  Level FlightAware ADS-B
Sat 07:52:34 AM 61.5040 20.3290 294° West 418 481 34,000  Level FlightAware ADS-B
Sat 07:53:16 AM 61.5390 20.1630 294° West 416 479 34,000  Level FlightAware ADS-B
Sat 07:53:51 AM 61.5590 20.0700 294° West 415 478 34,000  Level FlightAware ADS-B
Sat 07:54:35 AM 61.5900 19.9210 294° West 416 479 34,000  Level FlightAware ADS-B
Sat 07:55:16 AM 61.6210 19.7700 293° West 418 481 34,000  Level FlightAware ADS-B
Sat 07:55:52 AM 61.6590 19.5840 293° West 422 486 34,000  Level FlightAware ADS-B
Sat 07:56:41 AM 61.6960 19.4020 293° West 423 487 34,000  Level FlightAware ADS-B
Sat 07:57:17 AM 61.7240 19.2660 294° West 423 487 34,000  Level FlightAware ADS-B
Sat 07:57:52 AM 61.7430 19.1680 292° West 423 487 34,000  Level FlightAware ADS-B
Sat 07:58:39 AM 61.7770 19.0010 293° West 424 488 34,000  Level FlightAware ADS-B
Sat 07:59:12 AM 61.8020 18.8720 292° West 425 489 34,000  Level FlightAware ADS-B
Sat 08:00:00 AM 61.8460 18.6460 293° West 428 493 34,000  Level FlightAware ADS-B
Sat 08:00:43 AM 61.8790 18.4780 293° West 430 495 34,000  Level FlightAware ADS-B
Sat 08:01:24 AM 61.9100 18.3170 292° West 429 494 34,000  Level FlightAware ADS-B
Sat 08:02:09 AM 61.9430 18.1410 292° West 429 494 34,000  Level FlightAware ADS-B
Sat 08:02:41 AM 61.9670 18.0180 293° West 429 494 34,000  Level FlightAware ADS-B
Sat 08:03:19 AM 61.9950 17.8670 292° West 430 495 34,000  Level FlightAware ADS-B
Sat 08:04:07 AM 62.0220 17.7230 292° West 432 497 34,000  Level FlightAware ADS-B
Sat 08:04:42 AM 62.0460 17.5920 291° West 432 497 34,000  Level FlightAware ADS-B
Sat 08:05:22 AM 62.0750 17.4350 292° West 432 497 34,000  Level FlightAware ADS-B
Sat 08:06:07 AM 62.1180 17.2030 292° West 434 499 34,000  Level FlightAware ADS-B
Sat 08:06:47 AM 62.1450 17.0520 291° West 435 501 34,000  Level FlightAware ADS-B
Sat 08:07:29 AM 62.1760 16.8760 291° West 435 501 34,000  Level FlightAware ADS-B
Sat 08:08:11 AM 62.2060 16.7060 291° West 434 499 34,000  Level FlightAware ADS-B
Sat 08:08:53 AM 62.2360 16.5370 291° West 433 498 34,000  Level FlightAware ADS-B
Sat 08:09:27 AM 62.2600 16.4020 291° West 435 501 34,000  Level FlightAware ADS-B
Sat 08:10:12 AM 62.2830 16.2690 290° West 435 501 34,000  Level FlightAware ADS-B
Sat 08:10:53 AM 62.3200 16.0530 290° West 437 503 34,000  Level FlightAware ADS-B
Sat 08:11:25 AM 62.3420 15.9230 290° West 438 504 34,000  Level FlightAware ADS-B
Sat 08:12:11 AM 62.3740 15.7340 290° West 441 507 34,000  Level FlightAware ADS-B
Sat 08:12:51 AM 62.4010 15.5710 290° West 442 509 34,000  Level FlightAware ADS-B
Sat 08:13:36 AM 62.4290 15.4010 290° West 443 510 34,000  Level FlightAware ADS-B
Sat 08:14:45 AM 62.4670 15.1640 289° West 443 510 34,000  Level FlightAware ADS-B
Sat 08:16:06 AM 62.5240 14.8150 290° West 444 511 34,000  Level FlightAware ADS-B
Sat 08:16:49 AM 62.5620 14.5760 289° West 443 510 34,000  Level FlightAware ADS-B
Sat 08:17:33 AM 62.5900 14.3930 288° West 443 510 34,000  Level FlightAware ADS-B
Sat 08:18:13 AM 62.6170 14.2240 289° West 443 510 34,000  Level FlightAware ADS-B
Sat 08:18:55 AM 62.6430 14.0540 288° West 442 509 34,000  Level FlightAware ADS-B
Sat 08:19:32 AM 62.6650 13.9050 288° West 443 510 34,000  Level FlightAware ADS-B
Sat 08:20:04 AM 62.6790 13.8140 289° West 433 498 34,000  Level FlightAware ADS-B
Sat 08:20:43 AM 62.7030 13.6530 288° West 417 480 34,000  Level FlightAware ADS-B
Sat 08:21:24 AM 62.7270 13.4950 288° West 424 488 34,000  Level FlightAware ADS-B
Sat 08:22:19 AM 62.7680 13.2110 288° West 429 494 34,000  Level FlightAware ADS-B
Sat 08:23:03 AM 62.7940 13.0340 288° West 426 490 34,000  Level FlightAware ADS-B
Sat 08:23:43 AM 62.8180 12.8670 288° West 428 493 34,000  Level FlightAware ADS-B
Sat 08:24:23 AM 62.8420 12.6990 287° West 434 499 34,000  Level FlightAware ADS-B
Sat 08:24:59 AM 62.8630 12.5480 287° West 428 493 34,000  Level FlightAware ADS-B
Sat 08:25:41 AM 62.8840 12.3960 287° West 435 501 34,000  Level FlightAware ADS-B
Sat 08:26:22 AM 62.9070 12.2280 287° West 434 499 34,000  Level FlightAware ADS-B
Sat 08:27:06 AM 62.9310 12.0540 287° West 437 503 34,000  Level FlightAware ADS-B
Sat 08:27:43 AM 62.9490 11.9170 286° West 439 505 34,000  Level FlightAware ADS-B
Sat 08:28:32 AM 62.9850 11.6510 287° West 442 509 34,000  Level FlightAware ADS-B
Sat 08:29:12 AM 63.0080 11.4760 286° West 443 510 34,000  Level FlightAware ADS-B
Sat 08:29:54 AM 63.0310 11.2990 286° West 444 511 34,000  Level FlightAware ADS-B
Sat 08:30:36 AM 63.0550 11.1120 286° West 446 513 34,000  Level FlightAware ADS-B
Sat 08:31:16 AM 63.0770 10.9380 286° West 449 517 34,000  Level FlightAware ADS-B
Sat 08:31:54 AM 63.0910 10.8230 285° West 449 517 34,000  Level FlightAware ADS-B
Sat 08:32:40 AM 63.1160 10.6290 286° West 446 513 34,000  Level FlightAware ADS-B
Sat 08:33:23 AM 63.1410 10.4270 285° West 448 516 34,000  Level FlightAware ADS-B
Sat 08:34:04 AM 63.1670 10.2070 285° West 441 507 34,000  Level FlightAware ADS-B
Sat 08:34:46 AM 63.1900 10.0150 285° West 447 514 34,000  Level FlightAware ADS-B
Sat 08:35:27 AM 63.2110 9.8370 285° West 445 512 34,000  Level FlightAware ADS-B
Sat 08:36:07 AM 63.2320 9.6570 285° West 444 511 34,000  Level FlightAware ADS-B
Sat 08:36:49 AM 63.2530 9.4770 285° West 439 505 34,000  Level FlightAware ADS-B
Sat 08:37:37 AM 63.2770 9.2640 284° West 442 509 34,000  Level FlightAware ADS-B
Sat 08:38:19 AM 63.2970 9.0850 284° West 448 516 34,000  Level FlightAware ADS-B
Sat 08:39:02 AM 63.3130 8.9430 284° West 444 511 34,000  Level FlightAware ADS-B
Sat 08:39:51 AM 63.3370 8.7260 284° West 441 507 34,000  Level FlightAware ADS-B
Sat 08:40:39 AM 63.3600 8.5130 284° West 443 510 34,000  Level FlightAware ADS-B
Sat 08:41:24 AM 63.3810 8.3130 283° West 444 511 34,000  Level FlightAware ADS-B
Sat 08:42:07 AM 63.4070 8.0680 283° West 444 511 34,000  Level FlightAware ADS-B
Sat 08:42:52 AM 63.4270 7.8730 283° West 444 511 34,000  Level FlightAware ADS-B
Sat 08:43:22 AM 63.4410 7.7330 283° West 444 511 34,000  Level FlightAware ADS-B
Sat 08:44:07 AM 63.4610 7.5340 283° West 442 509 34,000  Level FlightAware ADS-B
Sat 08:44:44 AM 63.4740 7.4040 283° West 442 509 34,000  Level FlightAware ADS-B
Sat 08:45:24 AM 63.4900 7.2450 283° West 440 506 34,000  Level FlightAware ADS-B
Sat 08:46:22 AM 63.5140 6.9900 282° West 439 505 34,000  Level FlightAware ADS-B
Sat 08:47:09 AM 63.5340 6.7760 282° West 438 504 34,000  Level FlightAware ADS-B
Sat 08:47:44 AM 63.5540 6.5670 282° West 438 504 34,000  Level FlightAware ADS-B
Sat 08:48:24 AM 63.5700 6.3840 281° West 437 503 34,000  Level FlightAware ADS-B
Sat 08:49:10 AM 63.5870 6.1960 282° West 437 503 34,000  Level FlightAware ADS-B
Sat 08:49:52 AM 63.6000 6.0510 281° West 437 503 34,000  Level FlightAware ADS-B
Sat 08:50:35 AM 63.6170 5.8620 282° West 435 501 34,000  Level FlightAware ADS-B
Sat 08:51:13 AM 63.6350 5.6550 281° West 434 499 34,000  Level FlightAware ADS-B
Sat 08:51:57 AM 63.6520 5.4450 280° West 434 499 34,000  Level FlightAware ADS-B
Sat 08:52:38 AM 63.6670 5.2640 281° West 433 498 34,000  Level FlightAware ADS-B
Sat 08:53:28 AM 63.6850 5.0440 281° West 430 495 34,000  Level FlightAware ADS-B
Sat 08:54:08 AM 63.7000 4.8660 281° West 429 494 34,000  Level FlightAware ADS-B
Sat 08:54:49 AM 63.7090 4.7470 280° West 428 493 34,000  Level FlightAware ADS-B
Sat 08:55:54 AM 63.7290 4.4740 280° West 427 491 34,000  Level FlightAware ADS-B
Sat 08:56:34 AM 63.7450 4.2780 281° West 427 491 34,000  Level FlightAware ADS-B
Sat 08:57:35 AM 63.7670 3.9720 279° West 428 493 34,000  Level FlightAware ADS-B
Sat 08:58:27 AM 63.7850 3.7290 280° West 428 493 34,000  Level FlightAware ADS-B
Sat 08:59:07 AM 63.7930 3.6170 279° West 428 493 34,000  Level FlightAware ADS-B
Sat 08:59:48 AM 63.8040 3.4630 279° West 428 493 34,000  Level FlightAware ADS-B
Sat 09:00:59 AM 63.8270 3.1030 278° West 425 489 34,000  Level FlightAware ADS-B
Sat 09:01:35 AM 63.8360 2.9680 279° West 425 489 34,000  Level FlightAware ADS-B
Sat 09:02:44 AM 63.8520 2.7090 278° West 425 489 34,000  Level FlightAware ADS-B
Sat 09:03:23 AM 63.8610 2.5630 278° West 425 489 34,000  Level FlightAware ADS-B
Sat 09:03:59 AM 63.8690 2.4270 278° West 425 489 34,000  Level FlightAware ADS-B
Sat 09:04:45 AM 63.8800 2.2540 278° West 425 489 34,000  Level FlightAware ADS-B
Sat 09:05:46 AM 63.8940 2.0250 278° West 425 489 34,000  Level FlightAware ADS-B
Sat 09:06:25 AM 63.9030 1.8780 278° West 425 489 34,000  Level FlightAware ADS-B
Sat 09:07:02 AM 63.9120 1.7390 278° West 425 489 34,000  Level FlightAware ADS-B
Sat 09:07:37 AM 63.9200 1.6070 278° West 425 489 34,000  Level FlightAware ADS-B
Sat 09:08:25 AM 63.9310 1.4270 278° West 425 489 34,000  Level FlightAware ADS-B
Sat 09:09:01 AM 63.9390 1.2910 278° West 425 489 34,000  Level FlightAware ADS-B
Sat 09:09:37 AM 63.9480 1.1550 279° West 425 489 34,000  Level FlightAware ADS-B
Sat 09:12:00 AM 63.9699 0.5418 275° West  Level Estimated
Sat 09:12:28 AM 63.9980 0.0410 275° West 420 483 34,000  Level FlightAware ADS-B
Sat 09:13:28 AM 64.0070 -0.1740 276° West 420 483 34,000  Level FlightAware ADS-B
Sat 09:14:04 AM 64.0120 -0.3090 275° West 420 483 34,000  Level FlightAware ADS-B
Sat 09:14:40 AM 64.0160 -0.4770 273° West 416 479 34,000  Level FlightAware ADS-B
Sat 09:15:20 AM 64.0210 -0.6540 274° West 415 478 34,000  Level FlightAware ADS-B
Sat 09:16:08 AM 64.0290 -0.9170 274° West 416 479 34,000  Level FlightAware ADS-B
Sat 09:16:56 AM 64.0350 -1.1290 274° West 416 479 34,000  Level FlightAware ADS-B
Sat 09:17:36 AM 64.0390 -1.3010 273° West 416 479 34,000  Level FlightAware ADS-B
Sat 09:18:18 AM 64.0440 -1.4780 274° West 416 479 34,000  Level FlightAware ADS-B
Sat 09:18:55 AM 64.0470 -1.6160 273° West 416 479 34,000  Level FlightAware ADS-B
Sat 09:19:46 AM 64.0530 -1.8710 273° West 416 479 34,000  Level FlightAware ADS-B
Sat 09:20:28 AM 64.0560 -2.0540 272° West 417 480 34,000  Level FlightAware ADS-B
Sat 09:21:07 AM 64.0600 -2.2290 273° West 417 480 34,000  Level FlightAware ADS-B
Sat 09:21:48 AM 64.0630 -2.4010 272° West 417 480 34,000  Level FlightAware ADS-B
Sat 09:22:59 AM 64.0680 -2.6640 273° West 416 479 34,000  Level FlightAware ADS-B
Sat 09:23:57 AM 64.0710 -2.8820 272° West 416 479 34,000  Level FlightAware ADS-B
Sat 09:24:36 AM 64.0730 -3.0280 272° West 416 479 34,000  Level FlightAware ADS-B
Sat 09:25:18 AM 64.0760 -3.2770 272° West 420 483 34,000  Level FlightAware ADS-B
Sat 09:26:00 AM 64.0780 -3.4600 272° West 420 483 34,000  Level FlightAware ADS-B
Sat 09:26:46 AM 64.0810 -3.7130 272° West 419 482 34,000  Level FlightAware ADS-B
Sat 09:27:26 AM 64.0820 -3.8940 271° West 418 481 34,000  Level FlightAware ADS-B
Sat 09:28:05 AM 64.0830 -4.0670 271° West 418 481 34,000  Level FlightAware ADS-B
Sat 09:28:50 AM 64.0840 -4.2630 271° West 417 480 34,000  Level FlightAware ADS-B
Sat 09:29:26 AM 64.0850 -4.4170 271° West 416 479 34,000  Level FlightAware ADS-B
Sat 09:30:11 AM 64.0860 -4.5620 271° West 415 478 34,000  Level FlightAware ADS-B
Sat 09:31:13 AM 64.0860 -4.8150 270° West 415 478 34,000  Level FlightAware ADS-B
Sat 09:32:03 AM 64.0860 -5.0480 270° West 414 476 34,000  Level FlightAware ADS-B
Sat 09:32:40 AM 64.0860 -5.2680 270° West 415 478 34,000  Level FlightAware ADS-B
Sat 09:33:24 AM 64.0860 -5.4610 270° West 416 479 34,000  Level FlightAware ADS-B
Sat 09:34:05 AM 64.0850 -5.6410 269° West 416 479 34,000  Level FlightAware ADS-B
Sat 09:34:48 AM 64.0840 -5.8280 269° West 417 480 34,000  Level FlightAware ADS-B
Sat 09:35:29 AM 64.0830 -5.9930 269° West 418 481 34,000  Level FlightAware ADS-B
Sat 09:36:22 AM 64.0810 -6.1900 269° West 418 481 34,000  Level FlightAware ADS-B
Sat 09:37:02 AM 64.0800 -6.3400 269° West 418 481 34,000  Level FlightAware ADS-B
Sat 09:37:51 AM 64.0770 -6.5610 268° West 418 481 34,000  Level FlightAware ADS-B
Sat 09:38:38 AM 64.0750 -6.8190 269° West 420 483 34,000  Level FlightAware ADS-B
Sat 09:39:19 AM 64.0720 -7.0230 268° West 422 486 34,000  Level FlightAware ADS-B
Sat 09:40:04 AM 64.0690 -7.2240 268° West 422 486 34,000  Level FlightAware ADS-B
Sat 09:40:51 AM 64.0660 -7.4300 268° West 422 486 34,000  Level FlightAware ADS-B
Sat 09:41:31 AM 64.0640 -7.5580 268° West 422 486 34,000  Level FlightAware ADS-B
Sat 09:42:11 AM 64.0600 -7.7100 267° West 422 486 34,000  Level FlightAware ADS-B
Sat 09:42:51 AM 64.0570 -7.8620 267° West 422 486 34,000  Level FlightAware ADS-B
Sat 09:43:39 AM 64.0530 -8.0430 267° West 422 486 34,000  Level FlightAware ADS-B
Sat 09:44:15 AM 64.0490 -8.1800 266° West 422 486 34,000  Level FlightAware ADS-B
Sat 09:44:51 AM 64.0460 -8.3160 267° West 422 486 34,000  Level FlightAware ADS-B
Sat 09:45:53 AM 64.0410 -8.5510 267° West 422 486 34,000  Level FlightAware ADS-B
Sat 09:46:31 AM 64.0380 -8.6950 267° West 422 486 34,000  Level FlightAware ADS-B
Sat 09:47:19 AM 64.0330 -8.8760 266° West 422 486 34,000  Level FlightAware ADS-B
Sat 09:47:56 AM 64.0300 -9.0160 267° West 422 486 34,000  Level FlightAware ADS-B
Sat 09:48:56 AM 64.0250 -9.2430 267° West 422 486 34,000  Level FlightAware ADS-B
Sat 09:49:32 AM 64.0220 -9.3800 267° West 422 486 34,000  Level FlightAware ADS-B
Sat 09:50:07 AM 64.0190 -9.5120 267° West 422 486 34,000  Level FlightAware ADS-B
Sat 09:51:05 AM 63.9900 -10.1650 265° West 427 491 34,000  Level FlightAware ADS-B
Sat 09:51:47 AM 63.9780 -10.3540 262° West 428 493 34,000  Level FlightAware ADS-B
Sat 09:52:29 AM 63.9660 -10.5390 262° West 428 493 34,000  Level FlightAware ADS-B
Sat 09:53:03 AM 63.9550 -10.6920 261° West 428 493 34,000  Level FlightAware ADS-B
Sat 09:53:41 AM 63.9440 -10.8600 262° West 429 494 34,000  Level FlightAware ADS-B
Sat 09:54:17 AM 63.9330 -11.0190 261° West 429 494 34,000  Level FlightAware ADS-B
Sat 09:55:05 AM 63.9180 -11.2340 261° West 429 494 34,000  Level FlightAware ADS-B
Sat 09:55:53 AM 63.9020 -11.4470 260° West 431 496 34,000  Level FlightAware ADS-B
Sat 09:56:37 AM 63.8880 -11.6450 261° West 432 497 34,000  Level FlightAware ADS-B
Sat 09:57:17 AM 63.8750 -11.8180 260° West 432 497 34,000  Level FlightAware ADS-B
Sat 09:57:53 AM 63.8620 -11.9780 260° West 432 497 34,000  Level FlightAware ADS-B
Sat 09:58:27 AM 63.8500 -12.1350 260° West 432 497 34,000  Level FlightAware ADS-B
Sat 09:59:09 AM 63.8360 -12.3210 260° West 433 498 34,000  Level FlightAware ADS-B
Sat 09:59:53 AM 63.8200 -12.5140 259° West 434 499 34,000  Level FlightAware ADS-B
Sat 10:00:34 AM 63.8090 -12.6490 260° West 434 499 34,000  Level FlightAware ADS-B
Sat 10:01:32 AM 63.7890 -12.8980 260° West 435 501 34,000  Level FlightAware ADS-B
Sat 10:02:08 AM 63.7750 -13.0610 259° West 434 499 34,000  Level FlightAware ADS-B
Sat 10:02:51 AM 63.7580 -13.2560 259° West 434 499 34,000  Level FlightAware ADS-B
Sat 10:03:27 AM 63.7400 -13.4680 259° West 436 502 34,000  Level FlightAware ADS-B
Sat 10:04:13 AM 63.7210 -13.6740 258° West 436 502 34,000  Level FlightAware ADS-B
Sat 10:04:55 AM 63.7050 -13.8600 259° West 435 501 34,000  Level FlightAware ADS-B
Sat 10:05:27 AM 63.6920 -14.0030 258° West 436 502 34,000  Level FlightAware ADS-B
Sat 10:06:07 AM 63.6760 -14.1770 258° West 436 502 34,000  Level FlightAware ADS-B
Sat 10:06:53 AM 63.6620 -14.3240 258° West 436 502 34,000  Level FlightAware ADS-B
Sat 10:07:33 AM 63.6450 -14.5040 258° West 436 502 34,000  Level FlightAware ADS-B
Sat 10:08:13 AM 63.6270 -14.6900 258° West 437 503 34,000  Level FlightAware ADS-B
Sat 10:08:57 AM 63.6030 -14.9330 258° West 436 502 34,000  Level FlightAware ADS-B
Sat 10:09:41 AM 63.5840 -15.1240 257° West 436 502 34,000  Level FlightAware ADS-B
Sat 10:10:17 AM 63.5680 -15.2850 257° West 436 502 34,000  Level FlightAware ADS-B
Sat 10:10:55 AM 63.5500 -15.4530 257° West 437 503 34,000  Level FlightAware ADS-B
Sat 10:11:37 AM 63.5310 -15.6380 257° West 437 503 34,000  Level FlightAware ADS-B
Sat 10:12:27 AM 63.5090 -15.8460 257° West 437 503 34,000  Level FlightAware ADS-B
Sat 10:13:09 AM 63.4940 -15.9870 257° West 438 504 34,000  Level FlightAware ADS-B
Sat 10:14:02 AM 63.4700 -16.2090 256° West 438 504 34,000  Level FlightAware ADS-B
Sat 10:14:40 AM 63.4510 -16.3840 256° West 439 505 34,000  Level FlightAware ADS-B
Sat 10:15:12 AM 63.4330 -16.5500 256° West 439 505 34,000  Level FlightAware ADS-B
Sat 10:15:52 AM 63.4090 -16.7580 256° West 440 506 34,000  Level FlightAware ADS-B
Sat 10:16:29 AM 63.3910 -16.9170 256° West 439 505 34,000  Level FlightAware ADS-B
Sat 10:17:20 AM 63.3720 -17.0850 256° West 439 505 34,000  Level FlightAware ADS-B
Sat 10:17:53 AM 63.3550 -17.2300 255° West 440 506 34,000  Level FlightAware ADS-B
Sat 10:18:35 AM 63.3340 -17.4080 255° West 441 507 34,000  Level FlightAware ADS-B
Sat 10:19:15 AM 63.3060 -17.6430 255° West 440 506 34,000  Level FlightAware ADS-B
Sat 10:20:03 AM 63.2810 -17.8520 255° West 441 507 34,000  Level FlightAware ADS-B
Sat 10:20:46 AM 63.2570 -18.0430 254° West 442 509 34,000  Level FlightAware ADS-B
Sat 10:21:25 AM 63.2370 -18.2080 255° West 442 509 34,000  Level FlightAware ADS-B
Sat 10:22:07 AM 63.2140 -18.3910 254° West 441 507 34,000  Level FlightAware ADS-B
Sat 10:22:51 AM 63.1960 -18.5300 254° West 441 507 34,000  Level FlightAware ADS-B
Sat 10:23:33 AM 63.1730 -18.7140 255° West 441 507 34,000  Level FlightAware ADS-B
Sat 10:24:08 AM 63.1550 -18.8550 254° West 442 509 34,000  Level FlightAware ADS-B
Sat 10:24:50 AM 63.1300 -19.0450 254° West 441 507 34,000  Level FlightAware ADS-B
Sat 10:25:31 AM 63.1040 -19.2370 253° West 441 507 34,000  Level FlightAware ADS-B
Sat 10:26:15 AM 63.0740 -19.4660 254° West 441 507 34,000  Level FlightAware ADS-B
Sat 10:26:57 AM 63.0490 -19.6440 253° West 442 509 34,000  Level FlightAware ADS-B
Sat 10:27:41 AM 63.0240 -19.8260 253° West 443 510 34,000  Level FlightAware ADS-B
Sat 10:28:17 AM 63.0040 -19.9830 254° West 444 511 34,000  Level FlightAware ADS-B
Sat 10:28:55 AM 62.9910 -20.1460 260° West 447 514 34,000  Level FlightAware ADS-B
Sat 10:29:36 AM 62.9810 -20.3100 262° West 447 514 34,000  Level FlightAware ADS-B
Sat 10:30:31 AM 62.9660 -20.5380 262° West 448 516 34,000  Level FlightAware ADS-B
Sat 10:31:27 AM 62.9500 -20.7800 262° West 449 517 34,000  Level FlightAware ADS-B
Sat 10:32:39 AM 62.9270 -21.1140 262° West 452 520 34,000  Level FlightAware ADS-B
Sat 10:33:13 AM 62.9120 -21.3230 261° West 451 519 34,000  Level FlightAware ADS-B
Sat 10:33:59 AM 62.8970 -21.5320 261° West 451 519 34,000  Level FlightAware ADS-B
Sat 10:34:40 AM 62.8840 -21.7100 261° West 450 518 34,000  Level FlightAware ADS-B
Sat 10:35:17 AM 62.8710 -21.8800 261° West 450 518 34,000  Level FlightAware ADS-B
Sat 10:35:55 AM 62.8580 -22.0500 261° West 451 519 34,000  Level FlightAware ADS-B
Sat 10:36:31 AM 62.8450 -22.2140 260° West 450 518 34,000  Level FlightAware ADS-B
Sat 10:37:16 AM 62.8340 -22.3560 260° West 449 517 34,000  Level FlightAware ADS-B
Sat 10:38:03 AM 62.8170 -22.5670 260° West 448 516 34,000  Level FlightAware ADS-B
Sat 10:38:37 AM 62.8050 -22.7180 260° West 449 517 34,000  Level FlightAware ADS-B
Sat 10:39:24 AM 62.7870 -22.9310 260° West 449 517 34,000  Level FlightAware ADS-B
Sat 10:40:09 AM 62.7660 -23.1820 260° West 449 517 34,000  Level FlightAware ADS-B
Sat 10:40:47 AM 62.7520 -23.3480 260° West 449 517 34,000  Level FlightAware ADS-B
Sat 10:41:29 AM 62.7360 -23.5340 259° West 449 517 34,000  Level FlightAware ADS-B
Sat 10:42:13 AM 62.7180 -23.7280 259° West 449 517 34,000  Level FlightAware ADS-B
Sat 10:42:52 AM 62.7060 -23.8690 260° West 448 516 34,000  Level FlightAware ADS-B
Sat 10:43:38 AM 62.6880 -24.0620 259° West 446 513 34,000  Level FlightAware ADS-B
Sat 10:44:16 AM 62.6730 -24.2190 258° West 445 512 34,000  Level FlightAware ADS-B
Sat 10:44:54 AM 62.6530 -24.4380 259° West 447 514 34,000  Level FlightAware ADS-B
Sat 10:45:44 AM 62.6320 -24.6590 258° West 447 514 34,000  Level FlightAware ADS-B
Sat 10:46:24 AM 62.6150 -24.8320 258° West 448 516 34,000  Level FlightAware ADS-B
Sat 10:47:14 AM 62.5980 -25.0000 258° West 450 518 34,000  Level FlightAware ADS-B
Sat 10:47:57 AM 62.5790 -25.1930 258° West 447 514 34,000  Level FlightAware ADS-B
Sat 10:48:38 AM 62.5560 -25.4180 258° West 446 513 34,000  Level FlightAware ADS-B
Sat 10:49:19 AM 62.5380 -25.5940 258° West 448 516 34,000  Level FlightAware ADS-B
Sat 10:49:55 AM 62.5210 -25.7520 257° West 448 516 34,000  Level FlightAware ADS-B
Sat 10:50:39 AM 62.5040 -25.9130 257° West 447 514 34,000  Level FlightAware ADS-B
Sat 10:51:33 AM 62.4810 -26.1230 257° West 446 513 34,000  Level FlightAware ADS-B
Sat 10:52:13 AM 62.4630 -26.2900 257° West 448 516 34,000  Level FlightAware ADS-B
Sat 10:52:58 AM 62.4340 -26.5500 257° West 450 518 34,000  Level FlightAware ADS-B
Sat 10:53:41 AM 62.4140 -26.7310 257° West 451 519 34,000  Level FlightAware ADS-B
Sat 10:54:15 AM 62.3970 -26.8830 256° West 452 520 34,000  Level FlightAware ADS-B
Sat 10:55:07 AM 62.3760 -27.0660 256° West 452 520 34,000  Level FlightAware ADS-B
Sat 10:55:49 AM 62.3550 -27.2400 255° West 452 520 34,000  Level FlightAware ADS-B
Sat 10:56:25 AM 62.3330 -27.4300 256° West 456 525 34,000  Level FlightAware ADS-B
Sat 10:57:08 AM 62.3080 -27.6390 256° West 459 528 34,000  Level FlightAware ADS-B
Sat 10:57:49 AM 62.2920 -27.7710 255° West 462 532 34,000  Level FlightAware ADS-B
Sat 10:58:27 AM 62.2650 -27.9900 255° West 462 532 34,000  Level FlightAware ADS-B
Sat 10:59:18 AM 62.2370 -28.2170 255° West 461 531 34,000  Level FlightAware ADS-B
Sat 10:59:58 AM 62.2150 -28.3930 255° West 460 529 34,000  Level FlightAware ADS-B
Sat 11:00:48 AM 62.1900 -28.5860 255° West 459 528 34,000  Level FlightAware ADS-B
Sat 11:01:27 AM 62.1650 -28.7770 254° West 459 528 34,000  Level FlightAware ADS-B
Sat 11:02:09 AM 62.1490 -28.9060 255° West 460 529 34,000  Level FlightAware ADS-B
Sat 11:02:53 AM 62.1230 -29.1010 254° West 467 537 34,000  Level FlightAware ADS-B
Sat 11:03:24 AM 62.1040 -29.2420 254° West 466 536 34,000  Level FlightAware ADS-B
Sat 11:04:26 AM 62.0610 -29.5640 254° West 462 532 34,000  Level FlightAware ADS-B
Sat 11:05:04 AM 62.0380 -29.7310 254° West 462 532 34,000  Level FlightAware ADS-B
Sat 11:05:40 AM 62.0160 -29.8890 254° West 463 533 34,000  Level FlightAware ADS-B
Sat 11:06:30 AM 61.9880 -30.0880 253° West 463 533 34,000  Level FlightAware ADS-B
Sat 11:07:29 AM 61.9560 -30.3070 253° West 463 533 34,000  Level FlightAware ADS-B
Sat 11:08:05 AM 61.9370 -30.4400 253° West 463 533 34,000  Level FlightAware ADS-B
Sat 11:08:42 AM 61.9170 -30.5770 253° West 463 533 34,000  Level FlightAware ADS-B
Sat 11:09:20 AM 61.8970 -30.7170 253° West 463 533 34,000  Level FlightAware ADS-B
Sat 11:10:06 AM 61.8720 -30.8870 253° West 463 533 34,000  Level FlightAware ADS-B
Sat 11:10:45 AM 61.8520 -31.0310 254° West 463 533 34,000  Level FlightAware ADS-B
Sat 11:11:25 AM 61.8300 -31.1790 253° West 463 533 34,000  Level FlightAware ADS-B
Sat 11:12:01 AM 61.8110 -31.3110 253° West 463 533 34,000  Level FlightAware ADS-B
Sat 11:12:51 AM 61.7850 -31.4960 254° West 463 533 34,000  Level FlightAware ADS-B
Sat 11:13:16 AM 61.7710 -31.5880 252° West 463 533 34,000  Level FlightAware ADS-B
Sat 11:14:04 AM 61.7460 -31.7640 253° West 463 533 34,000  Level FlightAware ADS-B
Sat 11:14:39 AM 61.7270 -31.8930 253° West 463 533 34,000  Level FlightAware ADS-B
Sat 11:15:29 AM 61.7000 -32.0770 253° West 463 533 34,000  Level FlightAware ADS-B
Sat 11:18:00 AM 61.5506 -32.6453 250° West  Level FlightAware Approximate
Sat 11:19:00 AM 61.5086 -32.8845 250° West  Level FlightAware Approximate
Sat 11:20:00 AM 61.4661 -33.1231 250° West  Level FlightAware Approximate
Sat 11:21:00 AM 61.4233 -33.3611 249° West  Level FlightAware Approximate
Sat 11:22:00 AM 61.3800 -33.5984 249° West  Level FlightAware Approximate
Sat 11:23:00 AM 61.3364 -33.8351 249° West  Level FlightAware Approximate
Sat 11:24:00 AM 61.2923 -34.0711 249° West  Level FlightAware Approximate
Sat 11:25:00 AM 61.2478 -34.3064 249° West  Level FlightAware Approximate
Sat 11:26:00 AM 61.2029 -34.5410 248° West  Level FlightAware Approximate
Sat 11:27:00 AM 61.1576 -34.7750 248° West  Level FlightAware Approximate
Sat 11:28:00 AM 61.1119 -35.0083 248° West  Level FlightAware Approximate
Sat 11:29:00 AM 61.0658 -35.2410 248° West  Level FlightAware Approximate
Sat 11:30:00 AM 61.0193 -35.4729 248° West  Level FlightAware Approximate
Sat 11:31:00 AM 60.9724 -35.7042 247° West  Level FlightAware Approximate
Sat 11:32:00 AM 60.9251 -35.9348 247° West  Level FlightAware Approximate
Sat 11:33:00 AM 60.8774 -36.1647 247° West  Level FlightAware Approximate
Sat 11:34:00 AM 60.8293 -36.3939 247° West  Level FlightAware Approximate
Sat 11:35:00 AM 60.7808 -36.6224 247° West  Level FlightAware Approximate
Sat 11:36:00 AM 60.7320 -36.8502 246° West  Level FlightAware Approximate
Sat 11:37:00 AM 60.6828 -37.0774 246° West  Level FlightAware Approximate
Sat 11:38:00 AM 60.6331 -37.3038 246° West  Level FlightAware Approximate
Sat 11:39:00 AM 60.5831 -37.5295 246° West  Level FlightAware Approximate
Sat 11:40:00 AM 60.5327 -37.7546 246° West  Level FlightAware Approximate
Sat 11:41:00 AM 60.4820 -37.9789 245° Southwest  Level FlightAware Approximate
Sat 11:42:00 AM 60.4308 -38.2025 245° Southwest  Level FlightAware Approximate
Sat 11:43:00 AM 60.3793 -38.4255 245° Southwest  Level FlightAware Approximate
Sat 11:44:00 AM 60.3274 -38.6477 245° Southwest  Level FlightAware Approximate
Sat 11:45:00 AM 60.2752 -38.8692 245° Southwest  Level FlightAware Approximate
Sat 11:46:00 AM 60.2226 -39.0900 244° Southwest  Level FlightAware Approximate
Sat 11:47:00 AM 60.1696 -39.3101 244° Southwest  Level FlightAware Approximate
Sat 11:48:00 AM 60.1162 -39.5295 244° Southwest  Level FlightAware Approximate
Sat 11:49:00 AM 60.0625 -39.7481 244° Southwest  Level FlightAware Approximate
Sat 11:50:00 AM 60.0085 -39.9661 244° Southwest  Level FlightAware Approximate
Sat 11:51:00 AM 59.9432 -40.1707 236° Southwest  Level FlightAware Approximate
Sat 11:52:00 AM 59.8756 -40.3722 236° Southwest  Level FlightAware Approximate
Sat 11:53:00 AM 59.8077 -40.5729 236° Southwest  Level FlightAware Approximate
Sat 11:54:00 AM 59.7395 -40.7727 236° Southwest  Level FlightAware Approximate
Sat 11:55:00 AM 59.6710 -40.9718 236° Southwest  Level FlightAware Approximate
Sat 11:56:00 AM 59.6022 -41.1700 236° Southwest  Level FlightAware Approximate
Sat 11:57:00 AM 59.5331 -41.3674 236° Southwest  Level FlightAware Approximate
Sat 11:58:00 AM 59.4651 -41.5659 236° Southwest  Level FlightAware Approximate
Sat 11:59:00 AM 59.3968 -41.7637 236° Southwest  Level FlightAware Approximate
Sat 12:00:00 PM 59.3282 -41.9606 236° Southwest  Level FlightAware Approximate
Sat 12:01:00 PM 59.2594 -42.1567 236° Southwest  Level FlightAware Approximate
Sat 12:02:00 PM 59.1902 -42.3521 235° Southwest  Level FlightAware Approximate
Sat 12:03:00 PM 59.1207 -42.5466 235° Southwest  Level FlightAware Approximate
Sat 12:04:00 PM 59.0510 -42.7404 235° Southwest  Level FlightAware Approximate
Sat 12:05:00 PM 58.9809 -42.9333 235° Southwest  Level FlightAware Approximate
Sat 12:06:00 PM 58.9106 -43.1255 235° Southwest  Level FlightAware Approximate
Sat 12:07:00 PM 58.8400 -43.3169 235° Southwest  Level FlightAware Approximate
Sat 12:08:00 PM 58.7691 -43.5076 234° Southwest  Level FlightAware Approximate
Sat 12:09:00 PM 58.6979 -43.6974 234° Southwest  Level FlightAware Approximate
Sat 12:10:00 PM 58.6265 -43.8865 234° Southwest  Level FlightAware Approximate
Sat 12:11:00 PM 58.5546 -44.0746 234° Southwest  Level FlightAware Approximate
Sat 12:12:00 PM 58.4823 -44.2616 234° Southwest  Level FlightAware Approximate
Sat 12:13:00 PM 58.4096 -44.4478 233° Southwest  Level FlightAware Approximate
Sat 12:14:00 PM 58.3367 -44.6333 233° Southwest  Level FlightAware Approximate
Sat 12:15:00 PM 58.2635 -44.8180 233° Southwest  Level FlightAware Approximate
Sat 12:16:00 PM 58.1901 -45.0019 233° Southwest  Level FlightAware Approximate
Sat 12:17:00 PM 58.1164 -45.1851 233° Southwest  Level FlightAware Approximate
Sat 12:18:00 PM 58.0429 -45.3681 233° Southwest  Level FlightAware Approximate
Sat 12:19:00 PM 57.9695 -45.5510 233° Southwest  Level FlightAware Approximate
Sat 12:20:00 PM 57.8958 -45.7332 233° Southwest  Level FlightAware Approximate
Sat 12:21:00 PM 57.8219 -45.9146 233° Southwest  Level FlightAware Approximate
Sat 12:22:00 PM 57.7478 -46.0952 232° Southwest  Level FlightAware Approximate
Sat 12:23:00 PM 57.6734 -46.2752 232° Southwest  Level FlightAware Approximate
Sat 12:24:00 PM 57.5987 -46.4543 232° Southwest  Level FlightAware Approximate
Sat 12:25:00 PM 57.5238 -46.6328 232° Southwest  Level FlightAware Approximate
Sat 12:26:00 PM 57.4486 -46.8105 232° Southwest  Level FlightAware Approximate
Sat 12:27:00 PM 57.3732 -46.9875 232° Southwest  Level FlightAware Approximate
Sat 12:28:00 PM 57.2975 -47.1637 232° Southwest  Level FlightAware Approximate
Sat 12:29:00 PM 57.2216 -47.3393 231° Southwest  Level FlightAware Approximate
Sat 12:30:00 PM 57.1455 -47.5141 231° Southwest  Level FlightAware Approximate
Sat 12:31:00 PM 57.0691 -47.6881 231° Southwest  Level FlightAware Approximate
Sat 12:32:00 PM 56.9924 -47.8615 231° Southwest  Level FlightAware Approximate
Sat 12:33:00 PM 56.9155 -48.0342 231° Southwest  Level FlightAware Approximate
Sat 12:34:00 PM 56.8384 -48.2061 231° Southwest  Level FlightAware Approximate
Sat 12:35:00 PM 56.7611 -48.3774 231° Southwest  Level FlightAware Approximate
Sat 12:36:00 PM 56.6835 -48.5479 230° Southwest  Level FlightAware Approximate
Sat 12:37:00 PM 56.6057 -48.7177 230° Southwest  Level FlightAware Approximate
Sat 12:38:00 PM 56.5276 -48.8869 230° Southwest  Level FlightAware Approximate
Sat 12:39:00 PM 56.4494 -49.0553 230° Southwest  Level FlightAware Approximate
Sat 12:40:00 PM 56.3709 -49.2230 230° Southwest  Level FlightAware Approximate
Sat 12:41:00 PM 56.2921 -49.3901 230° Southwest  Level FlightAware Approximate
Sat 12:42:00 PM 56.2132 -49.5564 230° Southwest  Level FlightAware Approximate
Sat 12:43:00 PM 56.1340 -49.7221 229° Southwest  Level FlightAware Approximate
Sat 12:44:00 PM 56.0546 -49.8871 229° Southwest  Level FlightAware Approximate
Sat 12:45:00 PM 55.9711 -50.0443 221° Southwest  Level FlightAware Approximate
Sat 12:46:00 PM 55.8787 -50.1853 221° Southwest  Level FlightAware Approximate
Sat 12:47:00 PM 55.7862 -50.3257 220° Southwest  Level FlightAware Approximate
Sat 12:48:00 PM 55.6935 -50.4654 220° Southwest  Level FlightAware Approximate
Sat 12:49:00 PM 55.6007 -50.6044 220° Southwest  Level FlightAware Approximate
Sat 12:50:00 PM 55.5077 -50.7428 220° Southwest  Level FlightAware Approximate
Sat 12:51:00 PM 55.4145 -50.8805 220° Southwest  Level FlightAware Approximate
Sat 12:52:00 PM 55.3212 -51.0175 220° Southwest  Level FlightAware Approximate
Sat 12:53:00 PM 55.2277 -51.1540 220° Southwest  Level FlightAware Approximate
Sat 12:54:00 PM 55.1341 -51.2897 220° Southwest  Level FlightAware Approximate
Sat 12:55:00 PM 55.0404 -51.4249 220° Southwest  Level FlightAware Approximate
Sat 12:56:00 PM 54.9465 -51.5594 219° Southwest  Level FlightAware Approximate
Sat 12:57:00 PM 54.8524 -51.6933 219° Southwest  Level FlightAware Approximate
Sat 12:58:00 PM 54.7582 -51.8265 219° Southwest  Level FlightAware Approximate
Sat 12:59:00 PM 54.6638 -51.9592 219° Southwest  Level FlightAware Approximate
Sat 01:00:00 PM 54.5693 -52.0912 219° Southwest  Level FlightAware Approximate
Sat 01:01:00 PM 54.4747 -52.2226 219° Southwest  Level FlightAware Approximate
Sat 01:02:00 PM 54.3799 -52.3535 219° Southwest  Level FlightAware Approximate
Sat 01:03:00 PM 54.2850 -52.4837 219° Southwest  Level FlightAware Approximate
Sat 01:04:00 PM 54.1899 -52.6133 219° Southwest  Level FlightAware Approximate
Sat 01:05:00 PM 54.0947 -52.7423 218° Southwest  Level FlightAware Approximate
Sat 01:06:00 PM 53.9994 -52.8707 218° Southwest  Level FlightAware Approximate
Sat 01:07:00 PM 53.9039 -52.9985 218° Southwest  Level FlightAware Approximate
Sat 01:07:13 PM 53.4167 -53.5833 218° Southwest 410 472 34,000  Level Gander Center
Sat 01:08:00 PM 53.8083 -53.1258 218° Southwest  Level FlightAware Approximate
Sat 01:08:13 PM 53.3333 -53.7167 224° Southwest 410 472 34,000  Level Gander Center
Sat 01:09:00 PM 53.7126 -53.2524 218° Southwest  Level FlightAware Approximate
Sat 01:09:13 PM 53.2333 -53.8167 211° Southwest 410 472 34,000  Level Gander Center
Sat 01:10:00 PM 53.6167 -53.3785 218° Southwest  Level FlightAware Approximate
Sat 01:10:13 PM 53.1500 -53.9333 220° Southwest 410 472 34,000  Level Gander Center
Sat 01:11:00 PM 53.5207 -53.5041 218° Southwest  Level FlightAware Approximate
Sat 01:11:13 PM 53.0667 -54.0667 224° Southwest 410 472 34,000  Level Gander Center
Sat 01:12:00 PM 53.4245 -53.6290 218° Southwest  Level FlightAware Approximate
Sat 01:12:13 PM 53.0000 -54.2167 234° Southwest 400 460 35,300  Level Gander Center
Sat 01:13:13 PM 52.9333 -54.3333 227° Southwest 400 460 36,000 350 Climbing Gander Center
Sat 01:14:13 PM 52.8500 -54.5000 230° Southwest 390 449 36,000  Level Gander Center
Sat 01:15:13 PM 52.7833 -54.6500 234° Southwest 390 449 36,000  Level Gander Center
Sat 01:16:13 PM 52.7000 -54.7667 220° Southwest 390 449 36,000  Level Gander Center
Sat 01:17:13 PM 52.6333 -54.9167 234° Southwest 390 449 36,000  Level Gander Center
Sat 01:18:13 PM 52.5667 -55.0333 227° Southwest 390 449 36,000  Level Gander Center
Sat 01:19:13 PM 52.4833 -55.1833 228° Southwest 390 449 36,000  Level Gander Center
Sat 01:20:13 PM 52.4333 -55.3000 235° Southwest 390 449 36,000  Level Gander Center
Sat 01:21:13 PM 52.3500 -55.4500 228° Southwest 390 449 36,000  Level Gander Center
Sat 01:22:13 PM 52.2667 -55.5667 221° Southwest 390 449 36,000  Level Gander Center
Sat 01:23:13 PM 52.2167 -55.7167 241° Southwest 380 437 36,000  Level Gander Center
Sat 01:24:13 PM 52.1333 -55.8333 221° Southwest 390 449 36,000  Level Gander Center
Sat 01:25:13 PM 52.0500 -55.9833 228° Southwest 390 449 36,000  Level Gander Center
Sat 01:26:13 PM 52.0000 -56.1000 235° Southwest 390 449 36,000  Level Gander Center
Sat 01:27:13 PM 51.9167 -56.2333 225° Southwest 380 437 36,000  Level Gander Center
Sat 01:28:13 PM 51.8333 -56.3500 221° Southwest 390 449 36,000  Level Gander Center
Sat 01:29:13 PM 51.7833 -56.5000 242° Southwest 380 437 36,000  Level Gander Center
Sat 01:30:13 PM 51.7000 -56.6167 221° Southwest 380 437 36,000  Level Gander Center
Sat 01:31:13 PM 51.6333 -56.7333 227° Southwest 380 437 36,000  Level Gander Center
Sat 01:32:13 PM 51.5500 -56.8667 225° Southwest 390 449 36,000  Level Gander Center
Sat 01:33:13 PM 51.5000 -56.9833 235° Southwest 370 426 36,000  Level Gander Center
Sat 01:34:13 PM 51.4167 -57.1000 221° Southwest 380 437 36,000  Level Gander Center
Sat 01:35:13 PM 51.3333 -57.2333 225° Southwest 380 437 36,000  Level Gander Center
Sat 01:36:13 PM 51.2667 -57.3500 228° Southwest 380 437 36,000  Level Gander Center
Sat 01:37:13 PM 51.2000 -57.5000 235° Southwest 370 426 36,000  Level Gander Center
Sat 01:38:13 PM 51.1333 -57.6000 223° Southwest 380 437 36,000  Level Gander Center
Sat 01:39:13 PM 51.0500 -57.7500 229° Southwest 380 437 36,000  Level Gander Center
Sat 01:40:13 PM 50.9833 -57.8500 223° Southwest 380 437 36,000  Level Gander Center
Sat 01:45:48 PM 50.5910 -58.5440 223° Southwest 386 444 36,000  Level FlightAware ADS-B
Sat 01:46:33 PM 50.5240 -58.6540 226° Southwest 386 444 36,000  Level FlightAware ADS-B
Sat 01:47:12 PM 50.4820 -58.7210 225° Southwest 386 444 36,000  Level FlightAware ADS-B
Sat 01:47:58 PM 50.4220 -58.8180 226° Southwest 386 444 36,000  Level FlightAware ADS-B
Sat 01:48:38 PM 50.3680 -58.9050 226° Southwest 388 447 36,000  Level FlightAware ADS-B
Sat 01:49:05 PM 50.3390 -58.9500 225° Southwest 388 447 36,000  Level FlightAware ADS-B
Sat 01:50:11 PM 50.2630 -59.0710 226° Southwest 388 447 36,000  Level FlightAware ADS-B
Sat 01:51:08 PM 50.1990 -59.1740 226° Southwest 388 447 36,000  Level FlightAware ADS-B
Sat 01:51:57 PM 50.1460 -59.2560 225° Southwest 388 447 36,000  Level FlightAware ADS-B
Sat 01:52:33 PM 50.1080 -59.3170 226° Southwest 388 447 36,000  Level FlightAware ADS-B
Sat 01:53:33 PM 50.0430 -59.4170 225° Southwest 388 447 36,000  Level FlightAware ADS-B
Sat 01:54:09 PM 50.0040 -59.4780 225° Southwest 388 447 36,000  Level FlightAware ADS-B
Sat 01:54:48 PM 49.9620 -59.5430 225° Southwest 388 447 36,000  Level FlightAware ADS-B
Sat 01:55:24 PM 49.9230 -59.6040 225° Southwest 388 447 36,000  Level FlightAware ADS-B
Sat 01:56:12 PM 49.8710 -59.6840 225° Southwest 388 447 36,000  Level FlightAware ADS-B
Sat 01:56:54 PM 49.8260 -59.7540 225° Southwest 388 447 36,000  Level FlightAware ADS-B
Sat 01:57:42 PM 49.7740 -59.8350 225° Southwest 388 447 36,000  Level FlightAware ADS-B
Sat 01:58:20 PM 49.7330 -59.8980 225° Southwest 388 447 36,000  Level FlightAware ADS-B
Sat 01:59:08 PM 49.6810 -59.9780 225° Southwest 388 447 36,000  Level FlightAware ADS-B
Sat 01:59:43 PM 49.6430 -60.0360 225° Southwest 388 447 36,000  Level FlightAware ADS-B
Sat 02:00:18 PM 49.6060 -60.0950 226° Southwest 388 447 36,000  Level FlightAware ADS-B
Sat 02:01:13 PM 49.4000 -60.3833 226° Southwest 400 460 36,000  Level Gander Center
Sat 02:02:13 PM 49.3167 -60.5167 226° Southwest 400 460 36,000  Level Gander Center
Sat 02:03:13 PM 49.2333 -60.6167 218° Southwest 400 460 36,000  Level Gander Center
Sat 02:04:13 PM 49.1500 -60.7500 226° Southwest 400 460 36,000  Level Gander Center
Sat 02:05:13 PM 49.0833 -60.8500 225° Southwest 390 449 36,000  Level Gander Center
Sat 02:06:13 PM 49.0000 -60.9833 226° Southwest 400 460 36,000  Level Gander Center
Sat 02:07:13 PM 48.9167 -61.0833 218° Southwest 400 460 36,000  Level Gander Center
Sat 02:08:13 PM 48.8333 -61.2000 223° Southwest 390 449 36,000  Level Gander Center
Sat 02:09:13 PM 48.7667 -61.3333 233° Southwest 400 460 36,000  Level Gander Center
Sat 02:10:13 PM 48.6833 -61.4333 218° Southwest 400 460 36,000  Level Gander Center
Sat 02:11:13 PM 48.6000 -61.5667 227° Southwest 390 449 36,000  Level Gander Center
Sat 02:12:13 PM 48.5333 -61.6667 225° Southwest 400 460 36,000  Level Gander Center
Sat 02:13:13 PM 48.4500 -61.7833 223° Southwest 390 449 36,000  Level Gander Center
Sat 02:14:13 PM 48.3667 -61.8833 219° Southwest 400 460 36,000  Level Gander Center
Sat 02:15:13 PM 48.2833 -62.0167 227° Southwest 400 460 36,000  Level Gander Center
Sat 02:16:13 PM 48.2167 -62.1333 229° Southwest 400 460 36,000  Level Gander Center
Sat 02:17:13 PM 48.1333 -62.2500 223° Southwest 400 460 36,000  Level Gander Center
Sat 02:18:13 PM 48.0500 -62.3500 219° Southwest 410 472 36,000  Level Gander Center
Sat 02:19:13 PM 47.9500 -62.4833 222° Southwest 400 460 36,000  Level Gander Center
Sat 02:20:13 PM 47.8667 -62.5833 219° Southwest 400 460 36,000  Level Gander Center
Sat 02:21:13 PM 47.7833 -62.7000 223° Southwest 410 472 36,000  Level Gander Center
Sat 02:22:13 PM 47.7000 -62.8167 223° Southwest 410 472 36,000  Level Gander Center
Sat 02:23:13 PM 47.6167 -62.9500 227° Southwest 410 472 36,000  Level Gander Center
Sat 02:24:13 PM 47.5500 -63.0333 220° Southwest 410 472 36,000  Level Gander Center
Sat 02:25:13 PM 47.4500 -63.1667 222° Southwest 410 472 36,000  Level Gander Center
Sat 02:26:37 PM 47.3500 -63.3167 225° Southwest 410 472 36,000  Level Moncton Center
Sat 02:27:37 PM 47.2667 -63.4333 224° Southwest 410 472 36,000  Level Moncton Center
Sat 02:29:13 PM 47.1167 -63.6167 220° Southwest 410 472 36,000  Level Gander Center
Sat 02:30:13 PM 47.0333 -63.7333 224° Southwest 410 472 36,000  Level Gander Center
Sat 02:31:13 PM 46.9500 -63.8333 219° Southwest 420 483 36,000  Level Gander Center
Sat 02:32:13 PM 46.8667 -63.9500 224° Southwest 410 472 36,000  Level Gander Center
Sat 02:33:13 PM 46.7833 -64.0667 224° Southwest 420 483 36,000  Level Gander Center
Sat 02:34:13 PM 46.6833 -64.1833 219° Southwest 410 472 36,000  Level Gander Center
Sat 02:35:13 PM 46.6000 -64.3000 224° Southwest 420 483 36,000  Level Gander Center
Sat 02:36:13 PM 46.5167 -64.4167 224° Southwest 420 483 36,000  Level Gander Center
Sat 02:37:13 PM 46.4333 -64.5000 215° Southwest 410 472 36,000  Level Gander Center
Sat 02:42:39 PM 45.9730 -65.1220 215° Southwest 418 481 36,000  Level FlightAware ADS-B
Sat 02:43:17 PM 45.9180 -65.1910 221° Southwest 418 481 36,000  Level FlightAware ADS-B
Sat 02:44:14 PM 45.8550 -65.2700 221° Southwest 418 481 36,000  Level FlightAware ADS-B
Sat 02:44:52 PM 45.7990 -65.3390 221° Southwest 421 484 36,000  Level FlightAware ADS-B
Sat 02:45:52 PM 45.7090 -65.4510 221° Southwest 422 486 36,000  Level FlightAware ADS-B
Sat 02:46:36 PM 45.6250 -65.5540 221° Southwest 424 488 36,000  Level FlightAware ADS-B
Sat 02:47:16 PM 45.5660 -65.6270 221° Southwest 426 490 36,000  Level FlightAware ADS-B
Sat 02:48:01 PM 45.4970 -65.7110 220° Southwest 427 491 36,000  Level FlightAware ADS-B
Sat 02:48:42 PM 45.4370 -65.7850 221° Southwest 426 490 36,000  Level FlightAware ADS-B
Sat 02:49:26 PM 45.3720 -65.8630 220° Southwest 425 489 36,000  Level FlightAware ADS-B
Sat 02:50:08 PM 45.3090 -65.9410 221° Southwest 422 486 36,000  Level FlightAware ADS-B
Sat 02:50:38 PM 45.2630 -65.9960 220° Southwest 422 486 36,000  Level FlightAware ADS-B
Sat 02:51:24 PM 45.1960 -66.0770 220° Southwest 422 486 36,000  Level FlightAware ADS-B
Sat 02:52:03 PM 45.1370 -66.1480 220° Southwest 424 488 36,000  Level FlightAware ADS-B
Sat 02:52:49 PM 45.0680 -66.2310 220° Southwest 426 490 36,000  Level FlightAware ADS-B
Sat 02:53:29 PM 45.0160 -66.2930 220° Southwest 427 491 36,000  Level FlightAware ADS-B
Sat 02:53:51 PM 44.9750 -66.3420 220° Southwest 429 494 36,000  Level FlightAware ADS-B
Sat 02:54:55 PM 44.8980 -66.4330 220° Southwest 429 494 36,000  Level FlightAware ADS-B
Sat 02:55:36 PM 44.8280 -66.5170 220° Southwest 427 491 36,000  Level FlightAware ADS-B
Sat 02:56:17 PM 44.7560 -66.6020 220° Southwest 427 491 36,000  Level FlightAware ADS-B
Sat 02:57:00 PM 44.6910 -66.6790 220° Southwest 426 490 36,000  Level FlightAware ADS-B
Sat 02:57:39 PM 44.6380 -66.7410 220° Southwest 428 493 36,000  Level FlightAware ADS-B
Sat 02:58:21 PM 44.5870 -66.8010 220° Southwest 428 493 36,000  Level FlightAware ADS-B
Sat 02:59:03 PM 44.5230 -66.8760 220° Southwest 430 495 36,000  Level FlightAware ADS-B
Sat 02:59:35 PM 44.4740 -66.9330 220° Southwest 431 496 36,000  Level FlightAware ADS-B
Sat 03:00:13 PM 44.3960 -67.0270 221° Southwest 430 495 36,000  Level FlightAware ADS-B
Sat 03:01:10 PM 44.3170 -67.1370 225° Southwest 429 494 36,000  Level FlightAware ADS-B
Sat 03:01:53 PM 44.2550 -67.2220 224° Southwest 429 494 36,000  Level FlightAware ADS-B
Sat 03:02:35 PM 44.1950 -67.3040 224° Southwest 427 491 36,000  Level FlightAware ADS-B
Sat 03:03:18 PM 44.1370 -67.3830 224° Southwest 428 493 36,000  Level FlightAware ADS-B
Sat 03:04:14 PM 44.0690 -67.4750 224° Southwest 429 494 36,000  Level FlightAware ADS-B
Sat 03:04:55 PM 44.0170 -67.5450 224° Southwest 430 495 36,000  Level FlightAware ADS-B
Sat 03:05:35 PM 43.9610 -67.6210 224° Southwest 430 495 36,000  Level FlightAware ADS-B
Sat 03:06:17 PM 43.8830 -67.7260 224° Southwest 432 497 36,000  Level FlightAware ADS-B
Sat 03:07:21 PM 43.7900 -67.8510 224° Southwest 432 497 36,000  Level FlightAware ADS-B
Sat 03:08:00 PM 43.7470 -67.9080 224° Southwest 431 496 36,000  Level FlightAware ADS-B
Sat 03:08:39 PM 43.6970 -67.9760 225° Southwest 431 496 36,000  Level FlightAware ADS-B
Sat 03:09:28 PM 43.6100 -68.0920 224° Southwest 427 491 36,000  Level FlightAware ADS-B
Sat 03:10:07 PM 43.5550 -68.1640 224° Southwest 425 489 36,000  Level FlightAware ADS-B
Sat 03:10:52 PM 43.4900 -68.2500 224° Southwest 429 494 36,000  Level FlightAware ADS-B
Sat 03:11:56 PM 43.4060 -68.3610 224° Southwest 430 495 36,000  Level FlightAware ADS-B
Sat 03:12:19 PM 43.3780 -68.3980 224° Southwest 430 495 36,000  Level FlightAware ADS-B
Sat 03:13:00 PM 43.3240 -68.4680 223° Southwest 434 499 36,000  Level FlightAware ADS-B
Sat 03:13:33 PM 43.2800 -68.5260 224° Southwest 434 499 36,000  Level FlightAware ADS-B
Sat 03:14:12 PM 43.2040 -68.6250 224° Southwest 434 499 36,000  Level FlightAware ADS-B
Sat 03:14:55 PM 43.1410 -68.7070 224° Southwest 433 498 36,000  Level FlightAware ADS-B
Sat 03:15:52 PM 43.0670 -68.8020 223° Southwest 427 491 36,000  Level FlightAware ADS-B
Sat 03:16:37 PM 42.9940 -68.8970 224° Southwest 427 491 36,000  Level FlightAware ADS-B
Sat 03:17:40 PM 42.8990 -69.0180 223° Southwest 437 503 36,000  Level FlightAware ADS-B
Sat 03:18:10 PM 42.8530 -69.0770 223° Southwest 440 506 36,000  Level FlightAware ADS-B
Sat 03:19:00 PM 42.7850 -69.1640 223° Southwest 441 507 36,000  Level FlightAware ADS-B
Sat 03:19:43 PM 42.7210 -69.2450 223° Southwest 440 506 36,000  Level FlightAware ADS-B
Sat 03:20:23 PM 42.6800 -69.2980 224° Southwest 440 506 36,000  Level FlightAware ADS-B
Sat 03:21:20 PM 42.5910 -69.4100 223° Southwest 440 506 36,000  Level FlightAware ADS-B
Sat 03:21:52 PM 42.5440 -69.4700 223° Southwest 441 507 36,000  Level FlightAware ADS-B
Sat 03:22:47 PM 42.4410 -69.6000 223° Southwest 443 510 36,000  Level FlightAware ADS-B
Sat 03:23:37 PM 42.3660 -69.6930 223° Southwest 441 507 36,000  Level FlightAware ADS-B
Sat 03:24:10 PM 42.3150 -69.7570 223° Southwest 443 510 36,000  Level FlightAware ADS-B
Sat 03:24:51 PM 42.2540 -69.8330 223° Southwest 442 509 36,000  Level FlightAware ADS-B
Sat 03:25:32 PM 42.2010 -69.8990 223° Southwest 443 510 36,000  Level FlightAware ADS-B
Sat 03:26:18 PM 42.1340 -69.9820 223° Southwest 440 506 36,000  Level FlightAware ADS-B
Sat 03:26:54 PM 42.0870 -70.0400 222° Southwest 442 509 36,000  Level FlightAware ADS-B
Sat 03:27:35 PM 42.0270 -70.1140 223° Southwest 444 511 36,000  Level FlightAware ADS-B
Sat 03:28:37 PM 41.9130 -70.2580 223° Southwest 445 512 36,000  Level FlightAware ADS-B
Sat 03:29:22 PM 41.8540 -70.3560 231° Southwest 450 518 36,000  Level FlightAware ADS-B
Sat 03:30:07 PM 41.7980 -70.4560 233° Southwest 451 519 36,000  Level FlightAware ADS-B
Sat 03:31:06 PM 41.7240 -70.5840 232° Southwest 446 513 36,000  Level FlightAware ADS-B
Sat 03:31:52 PM 41.6690 -70.6770 232° Southwest 446 513 36,000  Level FlightAware ADS-B
Sat 03:32:37 PM 41.6050 -70.7860 232° Southwest 450 518 36,000  Level FlightAware ADS-B
Sat 03:33:22 PM 41.5510 -70.8780 232° Southwest 450 518 36,000  Level FlightAware ADS-B
Sat 03:34:02 PM 41.4950 -70.9730 232° Southwest 446 513 36,000  Level FlightAware ADS-B
Sat 03:34:47 PM 41.4380 -71.0700 232° Southwest 449 517 36,000  Level FlightAware ADS-B
Sat 03:35:22 PM 41.3930 -71.1460 232° Southwest 449 517 36,000  Level FlightAware ADS-B
Sat 03:36:24 PM 41.3290 -71.2530 231° Southwest 447 514 36,000  Level FlightAware ADS-B
Sat 03:37:03 PM 41.2710 -71.3510 232° Southwest 446 513 36,000  Level FlightAware ADS-B
Sat 03:37:41 PM 41.2290 -71.4200 231° Southwest 446 513 36,000  Level FlightAware ADS-B
Sat 03:38:37 PM 41.1430 -71.5640 232° Southwest 444 511 36,000  Level FlightAware ADS-B
Sat 03:39:29 PM 41.0780 -71.6720 231° Southwest 439 505 36,000  Level FlightAware ADS-B
Sat 03:40:05 PM 41.0290 -71.7480 229° Southwest 440 506 36,000  Level FlightAware ADS-B
Sat 03:40:48 PM 40.9690 -71.8300 226° Southwest 440 506 36,000  Level FlightAware ADS-B
Sat 03:41:29 PM 40.9230 -71.8930 226° Southwest 440 506 36,000  Level FlightAware ADS-B
Sat 03:41:59 PM 40.8677 -71.9688 226° Southwest 441 507 36,000  Level FlightAware ADS-B
Sat 03:42:36 PM 40.8153 -72.0404 226° Southwest 440 506 36,000  Level FlightAware ADS-B
Sat 03:43:15 PM 40.7605 -72.1152 226° Southwest 440 506 36,000  Level FlightAware ADS-B
Sat 03:44:15 PM 40.6751 -72.2311 226° Southwest 443 510 36,000  Level FlightAware ADS-B
Sat 03:44:59 PM 40.6150 -72.3120 226° Southwest 443 510 36,000  Level FlightAware ADS-B
Sat 03:45:12 PM 40.5942 -72.3408 226° Southwest 444 511 36,000  Level FlightAware ADS-B
Sat 03:45:46 PM 40.5449 -72.4073 226° Southwest 443 510 36,000  Level FlightAware ADS-B
Sat 03:46:24 PM 40.4914 -72.4793 226° Southwest 441 507 36,000  Level FlightAware ADS-B
Sat 03:46:59 PM 40.4409 -72.5472 226° Southwest 439 505 36,000  Level FlightAware ADS-B
Sat 03:47:40 PM 40.3900 -72.6160 226° Southwest 437 503 36,000  Level FlightAware ADS-B
Sat 03:48:19 PM 40.3288 -72.6971 225° Southwest 438 504 36,000  Level FlightAware ADS-B
Sat 03:48:52 PM 40.2816 -72.7600 225° Southwest 438 504 36,000  Level FlightAware ADS-B
Sat 03:49:23 PM 40.2367 -72.8198 225° Southwest 440 506 36,000  Level FlightAware ADS-B
Sat 03:49:54 PM 40.1929 -72.8781 225° Southwest 441 507 36,000  Level FlightAware ADS-B
Sat 03:50:25 PM 40.1489 -72.9363 225° Southwest 442 509 36,000  Level FlightAware ADS-B
Sat 03:50:58 PM 40.1009 -72.9999 225° Southwest 442 509 36,000  Level FlightAware ADS-B
Sat 03:51:32 PM 40.0522 -73.0641 225° Southwest 442 509 36,000  Level FlightAware ADS-B
Sat 03:52:10 PM 39.9980 -73.1355 225° Southwest 441 507 36,000  Level FlightAware ADS-B
Sat 03:52:41 PM 39.9536 -73.1938 225° Southwest 441 507 36,000  Level FlightAware ADS-B
Sat 03:53:13 PM 39.9079 -73.2538 225° Southwest 443 510 36,000  Level FlightAware ADS-B
Sat 03:53:44 PM 39.8629 -73.3126 225° Southwest 444 511 36,000  Level FlightAware ADS-B
Sat 03:54:14 PM 39.8187 -73.3704 225° Southwest 445 512 36,000  Level FlightAware ADS-B
Sat 03:54:45 PM 39.7742 -73.4284 225° Southwest 448 516 36,000  Level FlightAware ADS-B
Sat 03:55:20 PM 39.7234 -73.4945 225° Southwest 448 516 36,000  Level FlightAware ADS-B
Sat 03:55:50 PM 39.6797 -73.5513 225° Southwest 448 516 36,000  Level FlightAware ADS-B
Sat 03:56:22 PM 39.6318 -73.6132 225° Southwest 448 516 36,000  Level FlightAware ADS-B
Sat 03:56:32 PM 39.6167 -73.6307 222° Southwest 449 517 36,000  Level FlightAware ADS-B
Sat 03:56:38 PM 39.6065 -73.6410 218° Southwest 450 518 36,000  Level FlightAware ADS-B
Sat 03:57:10 PM 39.5516 -73.6888 214° Southwest 451 519 36,000  Level FlightAware ADS-B
Sat 03:57:40 PM 39.4991 -73.7347 214° Southwest 452 520 36,000  Level FlightAware ADS-B
Sat 03:58:11 PM 39.4459 -73.7812 214° Southwest 452 520 36,000  Level FlightAware ADS-B
Sat 03:58:42 PM 39.3923 -73.8278 214° Southwest 452 520 36,000  Level FlightAware ADS-B
Sat 03:59:13 PM 39.3384 -73.8746 214° Southwest 452 520 36,000  Level FlightAware ADS-B
Sat 03:59:43 PM 39.2863 -73.9199 214° Southwest 452 520 36,000  Level FlightAware ADS-B
Sat 04:00:13 PM 39.2341 -73.9651 214° Southwest 452 520 36,000  Level FlightAware ADS-B
Sat 04:00:45 PM 39.1792 -74.0126 214° Southwest 453 521 36,000  Level FlightAware ADS-B
Sat 04:01:16 PM 39.1256 -74.0590 214° Southwest 455 524 36,000  Level FlightAware ADS-B
Sat 04:01:46 PM 39.0727 -74.1044 214° Southwest 458 527 36,000  Level FlightAware ADS-B
Sat 04:02:17 PM 39.0178 -74.1518 214° Southwest 461 531 36,000  Level FlightAware ADS-B
Sat 04:02:47 PM 38.9641 -74.1978 214° Southwest 461 531 36,000  Level FlightAware ADS-B
Sat 04:03:23 PM 38.8994 -74.2532 214° Southwest 462 532 36,000  Level FlightAware ADS-B
Sat 04:03:53 PM 38.8464 -74.2985 214° Southwest 462 532 36,000  Level FlightAware ADS-B
Sat 04:04:29 PM 38.7834 -74.3523 214° Southwest 463 533 36,000  Level FlightAware ADS-B
Sat 04:05:01 PM 38.7262 -74.4010 214° Southwest 465 535 36,000  Level FlightAware ADS-B
Sat 04:05:34 PM 38.6662 -74.4519 214° Southwest 465 535 36,000  Level FlightAware ADS-B
Sat 04:06:07 PM 38.6082 -74.5012 214° Southwest 465 535 36,000  Level FlightAware ADS-B
Sat 04:06:38 PM 38.5513 -74.5494 214° Southwest 465 535 36,000  Level FlightAware ADS-B
Sat 04:07:26 PM 38.4656 -74.6218 213° Southwest 463 533 36,000  Level FlightAware ADS-B
Sat 04:07:57 PM 38.4114 -74.6674 213° Southwest 464 534 36,000  Level FlightAware ADS-B
Sat 04:08:29 PM 38.3545 -74.7154 213° Southwest 465 535 36,000  Level FlightAware ADS-B
Sat 04:08:59 PM 38.3002 -74.7609 213° Southwest 466 536 36,000  Level FlightAware ADS-B
Sat 04:09:29 PM 38.2453 -74.8070 213° Southwest 466 536 36,000  Level FlightAware ADS-B
Sat 04:10:22 PM 38.1501 -74.8866 213° Southwest 467 537 36,000  Level FlightAware ADS-B
Sat 04:10:53 PM 38.0943 -74.9331 213° Southwest 466 536 36,000  Level FlightAware ADS-B
Sat 04:11:23 PM 38.0420 -74.9767 213° Southwest 466 536 36,000  Level FlightAware ADS-B
Sat 04:11:53 PM 37.9860 -75.0232 213° Southwest 467 537 36,000  Level FlightAware ADS-B
Sat 04:12:30 PM 37.9200 -75.0779 213° Southwest 468 539 36,000  Level FlightAware ADS-B
Sat 04:13:20 PM 37.8293 -75.1530 213° Southwest 468 539 36,000  Level FlightAware ADS-B
Sat 04:13:50 PM 37.7738 -75.1988 213° Southwest 470 541 36,000  Level FlightAware ADS-B
Sat 04:14:20 PM 37.7195 -75.2435 213° Southwest 470 541 36,000  Level FlightAware ADS-B
Sat 04:14:51 PM 37.6638 -75.2893 213° Southwest 472 543 36,000  Level FlightAware ADS-B
Sat 04:15:23 PM 37.6050 -75.3376 213° Southwest 472 543 36,000  Level FlightAware ADS-B
Sat 04:15:54 PM 37.5492 -75.3832 213° Southwest 471 542 36,000  Level FlightAware ADS-B
Sat 04:16:40 PM 37.4643 -75.4527 213° Southwest 471 542 36,000  Level FlightAware ADS-B
Sat 04:17:28 PM 37.3940 -75.5100 213° Southwest 464 534 36,000  Level FlightAware ADS-B
Sat 04:18:05 PM 37.3280 -75.5640 213° Southwest 464 534 36,000  Level FlightAware ADS-B
Sat 04:18:52 PM 37.2270 -75.6450 213° Southwest 465 535 36,000  Level FlightAware ADS-B
Sat 04:19:02 PM 37.2055 -75.6630 214° Southwest 473 544 36,000  Level FlightAware ADS-B
Sat 04:19:33 PM 37.1479 -75.7097 213° Southwest 473 544 36,000  Level FlightAware ADS-B
Sat 04:20:04 PM 37.0910 -75.7555 213° Southwest 474 545 36,000  Level FlightAware ADS-B
Sat 04:20:37 PM 37.0309 -75.8040 213° Southwest 475 547 36,000  Level FlightAware ADS-B
Sat 04:21:42 PM 36.9300 -75.8840 212° Southwest 477 549 36,000  Level FlightAware ADS-B
Sat 04:23:07 PM 36.7830 -76.0030 213° Southwest 466 536 36,000  Level FlightAware ADS-B
Sat 04:24:07 PM 36.6560 -76.1040 213° Southwest 477 549 36,000  Level FlightAware ADS-B
Sat 04:24:22 PM 36.6140 -76.1374 213° Southwest 479 551 36,000  Level FlightAware ADS-B
Sat 04:25:24 PM 36.5070 -76.2220 212° Southwest 479 551 36,000  Level FlightAware ADS-B
Sat 04:26:09 PM 36.4250 -76.2870 213° Southwest 478 550 36,000  Level FlightAware ADS-B
Sat 04:27:07 PM 36.3280 -76.3630 212° Southwest 478 550 36,000  Level FlightAware ADS-B
Sat 04:27:48 PM 36.2360 -76.4360 213° Southwest 476 548 36,000  Level FlightAware ADS-B
Sat 04:28:59 PM 36.1110 -76.5330 212° Southwest 478 550 36,000  Level FlightAware ADS-B
Sat 04:29:55 PM 36.0110 -76.6110 212° Southwest 478 550 36,000  Level FlightAware ADS-B
Sat 04:30:19 PM 35.9730 -76.6410 213° Southwest 478 550 36,000  Level FlightAware ADS-B
Sat 04:31:07 PM 35.8970 -76.7000 212° Southwest 478 550 36,000  Level FlightAware ADS-B
Sat 04:31:43 PM 35.8390 -76.7440 212° Southwest 478 550 36,000  Level FlightAware ADS-B
Sat 04:32:30 PM 35.7640 -76.8020 212° Southwest 478 550 36,000  Level FlightAware ADS-B
Sat 04:33:08 PM 35.7040 -76.8490 212° Southwest 478 550 36,000  Level FlightAware ADS-B
Sat 04:33:50 PM 35.6370 -76.9000 212° Southwest 478 550 36,000  Level FlightAware ADS-B
Sat 04:34:42 PM 35.5540 -76.9640 212° Southwest 478 550 36,000  Level FlightAware ADS-B
Sat 04:35:18 PM 35.4960 -77.0080 212° Southwest 478 550 36,000  Level FlightAware ADS-B
Sat 04:35:54 PM 35.4390 -77.0520 212° Southwest 478 550 36,000  Level FlightAware ADS-B
Sat 04:36:43 PM 35.3610 -77.1120 212° Southwest 478 550 36,000  Level FlightAware ADS-B
Sat 04:37:20 PM 35.3020 -77.1570 212° Southwest 478 550 36,000  Level FlightAware ADS-B
Sat 04:38:09 PM 35.2240 -77.2170 212° Southwest 478 550 36,000  Level FlightAware ADS-B
Sat 04:38:44 PM 35.1680 -77.2590 212° Southwest 478 550 36,000  Level FlightAware ADS-B
Sat 04:39:37 PM 34.9064 -77.4561 212° Southwest 487 560 36,000  Level Washington Center
Sat 04:40:38 PM 34.7944 -77.5444 213° Southwest 487 560 36,000  Level Washington Center
Sat 04:41:38 PM 34.6742 -77.6150 206° Southwest 482 555 36,000  Level Washington Center
Sat 04:46:42 PM 34.0220 -77.8310 206° Southwest 476 548 36,000  Level FlightAware ADS-B
Sat 04:47:22 PM 33.9420 -77.8580 196° South 475 547 36,000  Level FlightAware ADS-B
Sat 04:48:07 PM 33.8390 -77.8930 196° South 472 543 36,000  Level FlightAware ADS-B
Sat 04:48:48 PM 33.7530 -77.9220 196° South 471 542 36,000  Level FlightAware ADS-B
Sat 04:49:30 PM 33.6810 -77.9460 196° South 473 544 36,000  Level FlightAware ADS-B
Sat 04:50:24 PM 33.5800 -77.9790 195° South 475 547 36,000  Level FlightAware ADS-B
Sat 04:50:50 PM 33.6450 -77.9580 15° North 36,000  Level FlightAware ADS-B
Sat 04:51:25 PM 33.4930 -78.0090 196° South 475 547 36,000  Level FlightAware ADS-B
Sat 04:52:33 PM 33.2920 -78.0750 195° South 472 543 36,000  Level FlightAware ADS-B
Sat 04:53:10 PM 33.2130 -78.1010 195° South 470 541 36,000  Level FlightAware ADS-B
Sat 04:53:52 PM 33.1250 -78.1300 195° South 470 541 36,000  Level FlightAware ADS-B
Sat 04:54:29 PM 33.0590 -78.1510 195° South 470 541 36,000  Level FlightAware ADS-B
Sat 04:55:09 PM 32.9620 -78.1840 196° South 474 545 36,000  Level FlightAware ADS-B
Sat 04:55:49 PM 32.8810 -78.2110 196° South 473 544 36,000  Level FlightAware ADS-B
Sat 04:56:40 PM 32.7670 -78.2480 195° South 470 541 36,000  Level FlightAware ADS-B
Sat 04:57:25 PM 32.6740 -78.2780 195° South 470 541 36,000  Level FlightAware ADS-B
Sat 04:58:14 PM 32.5730 -78.3110 195° South 469 540 36,000  Level FlightAware ADS-B
Sat 04:59:03 PM 32.4870 -78.3390 195° South 469 540 36,000  Level FlightAware ADS-B
Sat 04:59:48 PM 32.3910 -78.3710 196° South 471 542 36,000  Level FlightAware ADS-B
Sat 05:00:29 PM 32.3160 -78.3940 195° South 471 542 36,000  Level FlightAware ADS-B
Sat 05:01:16 PM 32.2320 -78.4210 195° South 471 542 36,000  Level FlightAware ADS-B
Sat 05:01:50 PM 32.1710 -78.4400 195° South 471 542 36,000  Level FlightAware ADS-B
Sat 05:02:39 PM 32.0840 -78.4680 195° South 471 542 36,000  Level FlightAware ADS-B
Sat 05:03:15 PM 32.0190 -78.4880 195° South 471 542 36,000  Level FlightAware ADS-B
Sat 05:04:04 PM 31.9320 -78.5160 195° South 471 542 36,000  Level FlightAware ADS-B
Sat 05:04:41 PM 31.8650 -78.5370 195° South 471 542 36,000  Level FlightAware ADS-B
Sat 05:05:27 PM 31.7830 -78.5630 195° South 471 542 36,000  Level FlightAware ADS-B
Sat 05:06:05 PM 31.7150 -78.5840 195° South 471 542 36,000  Level FlightAware ADS-B
Sat 05:06:55 PM 31.6260 -78.6130 196° South 471 542 36,000  Level FlightAware ADS-B
Sat 05:07:31 PM 31.5610 -78.6330 195° South 471 542 36,000  Level FlightAware ADS-B
Sat 05:08:19 PM 31.4750 -78.6600 195° South 471 542 36,000  Level FlightAware ADS-B
Sat 05:08:55 PM 31.4110 -78.6800 195° South 471 542 36,000  Level FlightAware ADS-B
Sat 05:09:44 PM 31.3230 -78.7080 195° South 471 542 36,000  Level FlightAware ADS-B
Sat 05:10:19 PM 31.0422 -78.8022 195° South 479 551 36,000  Level Jacksonville Center
Sat 05:11:19 PM 30.9222 -78.8389 195° South 484 557 36,000  Level Jacksonville Center
Sat 05:12:19 PM 30.7961 -78.8806 196° South 484 557 36,000  Level Jacksonville Center
Sat 05:13:19 PM 30.6639 -78.9200 194° South 479 551 36,000  Level Jacksonville Center
Sat 05:14:05 PM 30.5792 -78.9778 210° Southwest 466 536 36,000  Level Miami Center
Sat 05:15:05 PM 30.4536 -79.0233 197° South 461 531 36,000  Level Miami Center
Sat 05:16:05 PM 30.3181 -79.0350 184° South 467 537 36,000  Level Miami Center
Sat 05:17:05 PM 30.1922 -79.0828 198° South 475 547 36,000  Level Miami Center
Sat 05:18:05 PM 30.0622 -79.1303 198° South 482 555 36,000  Level Miami Center
Sat 05:19:05 PM 29.9256 -79.1897 201° Southwest 482 555 36,000  Level Miami Center
Sat 05:20:06 PM 29.7978 -79.2347 197° South 482 555 36,000  Level Miami Center
Sat 05:21:05 PM 29.6675 -79.2822 198° South 482 555 36,000  Level Miami Center
Sat 05:22:05 PM 29.5458 -79.3319 200° South 482 555 36,000  Level Miami Center
Sat 05:23:05 PM 29.4117 -79.3742 195° South 487 560 36,000  Level Miami Center
Sat 05:24:05 PM 29.2917 -79.4308 202° Southwest 487 560 36,000  Level Miami Center
Sat 05:25:05 PM 29.1656 -79.4778 198° South 487 560 36,000  Level Miami Center
Sat 05:26:06 PM 29.0356 -79.5244 197° South 487 560 36,000  Level Miami Center
Sat 05:27:05 PM 28.9114 -79.5736 199° South 487 560 36,000  Level Miami Center
Sat 05:28:05 PM 28.7833 -79.6203 198° South 487 560 36,000  Level Miami Center
Sat 05:29:05 PM 28.6550 -79.6667 198° South 487 560 36,000  Level Miami Center
Sat 05:30:05 PM 28.5267 -79.7178 199° South 487 560 36,000  Level Miami Center
Sat 05:35:39 PM 27.8130 -79.9810 199° South 36,000  Level FlightAware ADS-B
Sat 05:38:08 PM 27.4790 -80.1040 198° South 36,000  Level FlightAware ADS-B
Sat 05:38:44 PM 27.3960 -80.1350 198° South 478 550 36,000  Level FlightAware ADS-B
Sat 05:39:24 PM 27.3070 -80.1670 198° South 487 560 36,000  Level FlightAware ADS-B
Sat 05:40:01 PM 27.2450 -80.1900 198° South 487 560 36,000  Level FlightAware ADS-B
Sat 05:40:37 PM 27.1800 -80.2140 198° South 487 560 36,000  Level FlightAware ADS-B
Sat 05:41:26 PM 27.0910 -80.2460 198° South 487 560 36,000  Level FlightAware ADS-B
Sat 05:42:03 PM 26.9870 -80.2840 198° South 488 562 36,000  Level FlightAware ADS-B
Sat 05:42:50 PM 26.8790 -80.3230 198° South 475 547 36,000  Level FlightAware ADS-B
Sat 05:43:34 PM 26.7780 -80.3600 198° South 459 528 36,000  Level FlightAware ADS-B
Sat 05:44:14 PM 26.6940 -80.3900 198° South 456 525 36,000  Level FlightAware ADS-B
Sat 05:44:59 PM 26.6040 -80.4230 198° South 456 525 36,000  Level FlightAware ADS-B
Sat 05:45:41 PM 26.5220 -80.4530 198° South 458 527 36,000  Level FlightAware ADS-B
Sat 05:46:24 PM 26.4280 -80.4870 198° South 460 529 36,000  Level FlightAware ADS-B
Sat 05:47:04 PM 26.3460 -80.5130 196° South 462 532 36,000  Level FlightAware ADS-B
Sat 05:47:40 PM 26.2690 -80.5210 185° South 464 534 36,000  Level FlightAware ADS-B
Sat 05:48:24 PM 26.1710 -80.5280 184° South 463 533 36,000  Level FlightAware ADS-B
Sat 05:49:05 PM 26.0820 -80.5340 183° South 471 542 36,000  Level FlightAware ADS-B
Sat 05:49:34 PM 26.0160 -80.5370 182° South 482 555 36,000  Level FlightAware ADS-B
Sat 05:50:23 PM 25.9030 -80.5330 178° South 489 563 36,000  Level FlightAware ADS-B
Sat 05:51:07 PM 25.8070 -80.5220 174° South 483 556 36,000  Level FlightAware ADS-B
Sat 05:51:40 PM 25.7320 -80.5140 175° South 476 548 36,000 -133 Level FlightAware ADS-B
Sat 05:52:37 PM 25.6070 -80.5220 183° South 475 547 35,800 -429 Descending FlightAware ADS-B
Sat 05:53:18 PM 25.5260 -80.5580 202° Southwest 466 536 35,300 -837 Descending FlightAware ADS-B
Sat 05:54:03 PM 25.4340 -80.5990 202° Southwest 471 542 34,600 -918 Descending FlightAware ADS-B
Sat 05:54:56 PM 25.3410 -80.6390 201° Southwest 472 543 33,800 -821 Descending FlightAware ADS-B
Sat 05:55:38 PM 25.2380 -80.6840 202° Southwest 467 537 33,300 -623 Descending FlightAware ADS-B
Sat 05:56:13 PM 25.1670 -80.7150 202° Southwest 469 540 33,000 -209 Descending FlightAware ADS-B
Sat 05:57:04 PM 25.0760 -80.7540 201° Southwest 470 541 33,000  Level FlightAware ADS-B
Sat 05:57:41 PM 24.9860 -80.7940 202° Southwest 465 535 33,000  Level FlightAware ADS-B
Sat 05:58:26 PM 24.8960 -80.8330 201° Southwest 465 535 33,000 -494 Level FlightAware ADS-B
Sat 05:59:06 PM 24.8180 -80.8660 201° Southwest 449 517 32,300 -1,674 Descending FlightAware ADS-B
Sat 05:59:52 PM 24.7260 -80.9060 202° Southwest 447 514 30,600 -1,929 Descending FlightAware ADS-B
Sat 06:00:30 PM 24.6620 -80.9340 202° Southwest 437 503 29,600 -1,747 Descending FlightAware ADS-B
Sat 06:01:11 PM 24.5730 -80.9720 201° Southwest 431 496 28,300 -1,556 Descending FlightAware ADS-B
Sat 06:01:51 PM 24.5220 -80.9940 201° Southwest 417 480 27,500 -1,500 Descending FlightAware ADS-B
Sat 06:02:39 PM 24.4270 -81.0350 201° Southwest 411 473 26,100 -1,465 Descending FlightAware ADS-B
Sat 06:03:17 PM 24.3470 -81.0690 201° Southwest 401 461 25,400 -1,807 Descending FlightAware ADS-B
Sat 06:04:02 PM 24.2670 -81.1030 201° Southwest 412 474 23,600 -2,100 Descending FlightAware ADS-B
Sat 06:04:37 PM 24.2050 -81.1300 202° Southwest 403 464 22,600 -1,650 Descending FlightAware ADS-B
Sat 06:05:22 PM 24.1280 -81.1630 201° Southwest 398 458 21,400 -1,116 Descending FlightAware ADS-B
Sat 06:06:03 PM 24.0590 -81.1920 201° Southwest 378 435 21,000 -267 Descending FlightAware ADS-B
Sat 06:06:52 PM 23.9820 -81.2370 208° Southwest 378 435 21,000  Level FlightAware ADS-B
Sat 06:07:32 PM 23.9350 -81.2920 227° Southwest 382 440 21,000 -375 Level FlightAware ADS-B
Sat 06:08:12 PM 23.8850 -81.3490 226° Southwest 375 432 20,500 -1,704 Descending FlightAware ADS-B
Sat 06:08:53 PM 23.8350 -81.4070 227° Southwest 394 453 18,700 -2,370 Descending FlightAware ADS-B
Sat 06:09:33 PM 23.7840 -81.4640 226° Southwest 385 443 17,300 -1,034 Descending FlightAware ADS-B
Sat 06:10:20 PM 23.7370 -81.5190 227° Southwest 384 442 17,200 -72 Descending FlightAware ADS-B
Sat 06:10:56 PM 23.7000 -81.5620 227° Southwest 384 442 17,200 -3,195 Level FlightAware ADS-B
Sat 06:11:37 PM 23.6320 -81.6370 225° Southwest 376 433 13,100 -3,375 Descending FlightAware ADS-B
Sat 06:12:32 PM 23.5680 -81.7100 226° Southwest 329 379 11,800 -897 Descending FlightAware ADS-B
Sat 06:13:24 PM 23.5240 -81.7590 226° Southwest 307 353 11,500 -184 Descending FlightAware ADS-B
Sat 06:14:10 PM 23.4860 -81.8030 227° Southwest 307 353 11,500  Level FlightAware ADS-B
Sat 06:14:50 PM 23.4520 -81.8410 226° Southwest 307 353 11,500  Level FlightAware ADS-B
Sat 06:17:00 PM 23.2778 -82.0531 228° Southwest  Level FlightAware Approximate
Sat 06:18:00 PM 23.1951 -82.1485 226° Southwest  Level FlightAware Approximate
Sat 06:19:00 PM 23.1029 -82.2314 212° Southwest  Level FlightAware Approximate
Sat 06:20:00 PM 23.0311 -82.3356 223° Southwest  Level FlightAware Approximate
Sat 06:21:00 PM 22.9891 -82.4091 223° Southwest  Level Estimated
Sat 06:22:00 PM 22.9891 -82.4091 223° Southwest  Level Estimated
Sat 06:23:00 PM 22.9891 -82.4091 223° Southwest  Level Estimated
Sat 06:24:00 PM 22.9891 -82.4091 223° Southwest  Level Estimated
Sat 06:25:00 PM 22.9891 -82.4091 223° Southwest  Level Estimated
Sat 06:26:00 PM 22.9891 -82.4091 223° Southwest  Level Estimated
Sat 06:27:00 PM 22.9891 -82.4091 223° Southwest  Level Estimated
Sat 06:28:00 PM 22.9891 -82.4091 223° Southwest  Level Estimated
Sat 06:29:00 PM 22.9891 -82.4091 223° Southwest  Level Estimated
Sat 06:30:00 PM 22.9891 -82.4091 223° Southwest  Level Estimated
Sat 06:31:00 PM 22.9891 -82.4091 223° Southwest  Level Estimated
Sat 06:32:00 PM 22.9891 -82.4091 223° Southwest  Level Estimated
Sat 06:33:00 PM 22.9891 -82.4091 223° Southwest  Level Estimated
Sat 06:34:00 PM 22.9891 -82.4091 223° Southwest  Level Estimated
Sat 06:35:00 PM 22.9891 -82.4091 223° Southwest  Level Estimated

Login

Don't have an account? Register now (free) for customized features, flight alerts, and more!